<?xml version="1.0" encoding="UTF-8" standalone="no" ?>
<gpx xmlns="http://www.topografix.com/GPX/1/1" xmlns:xsi="http://www.w3.org/2001/XMLSchema-instance" xsi:schemaLocation="http://www.topografix.com/GPX/1/1 http://www.topografix.com/GPX/1/1/gpx.xsd" version="1.1" creator="VisuGPX - https://www.visugpx.com">
  <metadata>
    <name>Trek Ecrins </name>
    <desc><![CDATA[Trek de 3 jours au départ des Andrieux vers le refuge des Souffles le premier jour. Puis col de Colombe et refuge de l'Olan le second jour. Retour aux Andrieux le dernier jour.]]></desc>
  </metadata>
  <wpt lat="44.82057" lon="6.16584">
    <ele>1046</ele>
    <name><![CDATA[Arrivée]]></name>
    <desc><![CDATA[La Chapelle-En-Valgaudémar]]></desc>
    <cmt><![CDATA[La Chapelle-En-Valgaudémar]]></cmt>
  </wpt>
  <wpt lat="44.82066" lon="6.16601">
    <ele>1046.6</ele>
    <name><![CDATA[Départ]]></name>
    <desc><![CDATA[parking]]></desc>
    <cmt><![CDATA[parking]]></cmt>
  </wpt>
  <wpt lat="44.84147" lon="6.20453">
    <ele>2338.8</ele>
    <name><![CDATA[Refuge de L'Ol]]></name>
    <desc><![CDATA[Refuge de L'Olan]]></desc>
    <cmt><![CDATA[Refuge de L'Olan]]></cmt>
  </wpt>
  <wpt lat="44.84467" lon="6.14653">
    <ele>1968.5</ele>
    <name><![CDATA[Refuge Des Sou]]></name>
    <desc><![CDATA[Refuge Des Souffles]]></desc>
    <cmt><![CDATA[Refuge Des Souffles]]></cmt>
  </wpt>
  <trk>
    <name><![CDATA[Jour 3]]></name>
    <trkseg>
      <trkpt lat="44.8411" lon="6.20358">
        <ele>2257.7937011719</ele>
        <time>2020-08-16T07:13:30Z</time>
      </trkpt>
      <trkpt lat="44.84143" lon="6.2043">
        <ele>2351.0415039062</ele>
        <time>2020-08-16T07:14:42Z</time>
      </trkpt>
      <trkpt lat="44.84148" lon="6.20429">
        <ele>2349.599609375</ele>
        <time>2020-08-16T07:16:39Z</time>
      </trkpt>
      <trkpt lat="44.84157" lon="6.20437">
        <ele>2348.1574707031</ele>
        <time>2020-08-16T07:16:50Z</time>
      </trkpt>
      <trkpt lat="44.8416" lon="6.20435">
        <ele>2350.5607910156</ele>
        <time>2020-08-16T07:17:07Z</time>
      </trkpt>
      <trkpt lat="44.8416" lon="6.20435">
        <ele>2353.4448242188</ele>
        <time>2020-08-16T07:17:15Z</time>
      </trkpt>
      <trkpt lat="44.84176" lon="6.2044">
        <ele>2362.0964355469</ele>
        <time>2020-08-16T07:17:38Z</time>
      </trkpt>
      <trkpt lat="44.84176" lon="6.2044">
        <ele>2362.0964355469</ele>
        <time>2020-08-16T07:17:47Z</time>
      </trkpt>
      <trkpt lat="44.84197" lon="6.20445">
        <ele>2363.5383300781</ele>
        <time>2020-08-16T07:18:09Z</time>
      </trkpt>
      <trkpt lat="44.84204" lon="6.2044">
        <ele>2362.5771484375</ele>
        <time>2020-08-16T07:18:25Z</time>
      </trkpt>
      <trkpt lat="44.84205" lon="6.2044">
        <ele>2361.6159667969</ele>
        <time>2020-08-16T07:18:51Z</time>
      </trkpt>
      <trkpt lat="44.84207" lon="6.20447">
        <ele>2359.6931152344</ele>
        <time>2020-08-16T07:20:35Z</time>
      </trkpt>
      <trkpt lat="44.84217" lon="6.20447">
        <ele>2360.173828125</ele>
        <time>2020-08-16T07:20:53Z</time>
      </trkpt>
      <trkpt lat="44.84216" lon="6.20441">
        <ele>2360.6545410156</ele>
        <time>2020-08-16T07:21:00Z</time>
      </trkpt>
      <trkpt lat="44.84209" lon="6.2043">
        <ele>2359.2126464844</ele>
        <time>2020-08-16T07:21:16Z</time>
      </trkpt>
      <trkpt lat="44.84203" lon="6.20421">
        <ele>2357.2900390625</ele>
        <time>2020-08-16T07:21:31Z</time>
      </trkpt>
      <trkpt lat="44.84205" lon="6.20412">
        <ele>2358.2512207031</ele>
        <time>2020-08-16T07:21:44Z</time>
      </trkpt>
      <trkpt lat="44.84194" lon="6.20408">
        <ele>2353.4448242188</ele>
        <time>2020-08-16T07:22:05Z</time>
      </trkpt>
      <trkpt lat="44.84188" lon="6.20407">
        <ele>2350.0803222656</ele>
        <time>2020-08-16T07:22:21Z</time>
      </trkpt>
      <trkpt lat="44.84184" lon="6.20409">
        <ele>2345.2734375</ele>
        <time>2020-08-16T07:22:30Z</time>
      </trkpt>
      <trkpt lat="44.84174" lon="6.20406">
        <ele>2342.3896484375</ele>
        <time>2020-08-16T07:22:51Z</time>
      </trkpt>
      <trkpt lat="44.84176" lon="6.20397">
        <ele>2343.8315429688</ele>
        <time>2020-08-16T07:23:00Z</time>
      </trkpt>
      <trkpt lat="44.8417" lon="6.20376">
        <ele>2347.1960449219</ele>
        <time>2020-08-16T07:23:16Z</time>
      </trkpt>
      <trkpt lat="44.84168" lon="6.2037">
        <ele>2347.1960449219</ele>
        <time>2020-08-16T07:23:23Z</time>
      </trkpt>
      <trkpt lat="44.84159" lon="6.20366">
        <ele>2339.986328125</ele>
        <time>2020-08-16T07:23:44Z</time>
      </trkpt>
      <trkpt lat="44.84154" lon="6.20377">
        <ele>2332.7763671875</ele>
        <time>2020-08-16T07:24:01Z</time>
      </trkpt>
      <trkpt lat="44.84148" lon="6.20376">
        <ele>2332.2958984375</ele>
        <time>2020-08-16T07:24:18Z</time>
      </trkpt>
      <trkpt lat="44.84146" lon="6.20372">
        <ele>2331.3342285156</ele>
        <time>2020-08-16T07:24:23Z</time>
      </trkpt>
      <trkpt lat="44.8414" lon="6.20367">
        <ele>2329.4116210938</ele>
        <time>2020-08-16T07:24:38Z</time>
      </trkpt>
      <trkpt lat="44.84137" lon="6.20371">
        <ele>2327.4890136719</ele>
        <time>2020-08-16T07:24:54Z</time>
      </trkpt>
      <trkpt lat="44.84132" lon="6.20381">
        <ele>2325.56640625</ele>
        <time>2020-08-16T07:25:11Z</time>
      </trkpt>
      <trkpt lat="44.84128" lon="6.20374">
        <ele>2324.6052246094</ele>
        <time>2020-08-16T07:25:24Z</time>
      </trkpt>
      <trkpt lat="44.84124" lon="6.20377">
        <ele>2319.3181152344</ele>
        <time>2020-08-16T07:25:41Z</time>
      </trkpt>
      <trkpt lat="44.84117" lon="6.20385">
        <ele>2314.0305175781</ele>
        <time>2020-08-16T07:26:00Z</time>
      </trkpt>
      <trkpt lat="44.84107" lon="6.2039">
        <ele>2311.1467285156</ele>
        <time>2020-08-16T07:26:20Z</time>
      </trkpt>
      <trkpt lat="44.84097" lon="6.20395">
        <ele>2310.1853027344</ele>
        <time>2020-08-16T07:26:37Z</time>
      </trkpt>
      <trkpt lat="44.84088" lon="6.204">
        <ele>2306.8208007812</ele>
        <time>2020-08-16T07:26:57Z</time>
      </trkpt>
      <trkpt lat="44.8408" lon="6.20415">
        <ele>2301.5336914062</ele>
        <time>2020-08-16T07:27:18Z</time>
      </trkpt>
      <trkpt lat="44.8407" lon="6.2042">
        <ele>2299.1301269531</ele>
        <time>2020-08-16T07:27:40Z</time>
      </trkpt>
      <trkpt lat="44.84068" lon="6.20421">
        <ele>2297.2075195312</ele>
        <time>2020-08-16T07:27:55Z</time>
      </trkpt>
      <trkpt lat="44.84062" lon="6.20431">
        <ele>2294.3234863281</ele>
        <time>2020-08-16T07:28:16Z</time>
      </trkpt>
      <trkpt lat="44.84059" lon="6.2043">
        <ele>2293.8430175781</ele>
        <time>2020-08-16T07:28:41Z</time>
      </trkpt>
      <trkpt lat="44.84056" lon="6.20426">
        <ele>2294.8041992188</ele>
        <time>2020-08-16T07:29:01Z</time>
      </trkpt>
      <trkpt lat="44.84051" lon="6.20419">
        <ele>2295.765625</ele>
        <time>2020-08-16T07:29:17Z</time>
      </trkpt>
      <trkpt lat="44.84048" lon="6.20413">
        <ele>2294.8041992188</ele>
        <time>2020-08-16T07:29:40Z</time>
      </trkpt>
      <trkpt lat="44.84041" lon="6.20421">
        <ele>2290.4782714844</ele>
        <time>2020-08-16T07:29:59Z</time>
      </trkpt>
      <trkpt lat="44.84033" lon="6.20435">
        <ele>2284.7106933594</ele>
        <time>2020-08-16T07:30:20Z</time>
      </trkpt>
      <trkpt lat="44.84028" lon="6.20435">
        <ele>2282.7875976562</ele>
        <time>2020-08-16T07:30:35Z</time>
      </trkpt>
      <trkpt lat="44.84026" lon="6.20421">
        <ele>2281.345703125</ele>
        <time>2020-08-16T07:30:51Z</time>
      </trkpt>
      <trkpt lat="44.8403" lon="6.20404">
        <ele>2279.9038085938</ele>
        <time>2020-08-16T07:31:08Z</time>
      </trkpt>
      <trkpt lat="44.8403" lon="6.20393">
        <ele>2278.9423828125</ele>
        <time>2020-08-16T07:31:24Z</time>
      </trkpt>
      <trkpt lat="44.8403" lon="6.20385">
        <ele>2276.5393066406</ele>
        <time>2020-08-16T07:31:38Z</time>
      </trkpt>
      <trkpt lat="44.84026" lon="6.20374">
        <ele>2276.05859375</ele>
        <time>2020-08-16T07:31:53Z</time>
      </trkpt>
      <trkpt lat="44.84021" lon="6.20361">
        <ele>2276.05859375</ele>
        <time>2020-08-16T07:32:07Z</time>
      </trkpt>
      <trkpt lat="44.84019" lon="6.20351">
        <ele>2273.6552734375</ele>
        <time>2020-08-16T07:32:27Z</time>
      </trkpt>
      <trkpt lat="44.84017" lon="6.20349">
        <ele>2273.1748046875</ele>
        <time>2020-08-16T07:32:43Z</time>
      </trkpt>
      <trkpt lat="44.84008" lon="6.20351">
        <ele>2267.8872070312</ele>
        <time>2020-08-16T07:32:59Z</time>
      </trkpt>
      <trkpt lat="44.83999" lon="6.20355">
        <ele>2263.0808105469</ele>
        <time>2020-08-16T07:33:14Z</time>
      </trkpt>
      <trkpt lat="44.83993" lon="6.20361">
        <ele>2258.7548828125</ele>
        <time>2020-08-16T07:33:29Z</time>
      </trkpt>
      <trkpt lat="44.83991" lon="6.20372">
        <ele>2255.8708496094</ele>
        <time>2020-08-16T07:33:44Z</time>
      </trkpt>
      <trkpt lat="44.83989" lon="6.20382">
        <ele>2253.9484863281</ele>
        <time>2020-08-16T07:34:12Z</time>
      </trkpt>
      <trkpt lat="44.8398" lon="6.20395">
        <ele>2254.9096679688</ele>
        <time>2020-08-16T07:34:26Z</time>
      </trkpt>
      <trkpt lat="44.83973" lon="6.204">
        <ele>2253.9484863281</ele>
        <time>2020-08-16T07:34:39Z</time>
      </trkpt>
      <trkpt lat="44.83961" lon="6.20405">
        <ele>2253.4677734375</ele>
        <time>2020-08-16T07:34:59Z</time>
      </trkpt>
      <trkpt lat="44.83951" lon="6.20407">
        <ele>2251.544921875</ele>
        <time>2020-08-16T07:35:19Z</time>
      </trkpt>
      <trkpt lat="44.83953" lon="6.20417">
        <ele>2249.6223144531</ele>
        <time>2020-08-16T07:35:35Z</time>
      </trkpt>
      <trkpt lat="44.83948" lon="6.2042">
        <ele>2244.8156738281</ele>
        <time>2020-08-16T07:35:55Z</time>
      </trkpt>
      <trkpt lat="44.83938" lon="6.20418">
        <ele>2242.4125976562</ele>
        <time>2020-08-16T07:36:11Z</time>
      </trkpt>
      <trkpt lat="44.83933" lon="6.20417">
        <ele>2243.3737792969</ele>
        <time>2020-08-16T07:36:30Z</time>
      </trkpt>
      <trkpt lat="44.83925" lon="6.2041">
        <ele>2238.0866699219</ele>
        <time>2020-08-16T07:36:50Z</time>
      </trkpt>
      <trkpt lat="44.83923" lon="6.20391">
        <ele>2237.6059570312</ele>
        <time>2020-08-16T07:37:17Z</time>
      </trkpt>
      <trkpt lat="44.83926" lon="6.20381">
        <ele>2236.1640625</ele>
        <time>2020-08-16T07:37:34Z</time>
      </trkpt>
      <trkpt lat="44.83929" lon="6.20377">
        <ele>2234.7219238281</ele>
        <time>2020-08-16T07:37:41Z</time>
      </trkpt>
      <trkpt lat="44.8393" lon="6.20367">
        <ele>2229.4345703125</ele>
        <time>2020-08-16T07:37:58Z</time>
      </trkpt>
      <trkpt lat="44.83926" lon="6.2036">
        <ele>2227.9926757812</ele>
        <time>2020-08-16T07:38:07Z</time>
      </trkpt>
      <trkpt lat="44.83919" lon="6.20351">
        <ele>2227.5119628906</ele>
        <time>2020-08-16T07:38:25Z</time>
      </trkpt>
      <trkpt lat="44.83915" lon="6.20337">
        <ele>2223.1862792969</ele>
        <time>2020-08-16T07:38:47Z</time>
      </trkpt>
      <trkpt lat="44.83913" lon="6.20324">
        <ele>2218.8601074219</ele>
        <time>2020-08-16T07:39:03Z</time>
      </trkpt>
      <trkpt lat="44.83912" lon="6.20315">
        <ele>2215.4956054688</ele>
        <time>2020-08-16T07:39:21Z</time>
      </trkpt>
      <trkpt lat="44.83916" lon="6.20308">
        <ele>2215.9760742188</ele>
        <time>2020-08-16T07:39:34Z</time>
      </trkpt>
      <trkpt lat="44.83917" lon="6.20299">
        <ele>2215.9760742188</ele>
        <time>2020-08-16T07:39:42Z</time>
      </trkpt>
      <trkpt lat="44.83922" lon="6.20278">
        <ele>2213.5727539062</ele>
        <time>2020-08-16T07:40:00Z</time>
      </trkpt>
      <trkpt lat="44.83918" lon="6.20261">
        <ele>2210.6889648438</ele>
        <time>2020-08-16T07:40:15Z</time>
      </trkpt>
      <trkpt lat="44.83915" lon="6.20254">
        <ele>2208.7663574219</ele>
        <time>2020-08-16T07:40:28Z</time>
      </trkpt>
      <trkpt lat="44.83911" lon="6.20244">
        <ele>2205.8823242188</ele>
        <time>2020-08-16T07:40:43Z</time>
      </trkpt>
      <trkpt lat="44.83905" lon="6.20238">
        <ele>2205.4018554688</ele>
        <time>2020-08-16T07:41:00Z</time>
      </trkpt>
      <trkpt lat="44.83895" lon="6.20233">
        <ele>2203.4790039062</ele>
        <time>2020-08-16T07:41:22Z</time>
      </trkpt>
      <trkpt lat="44.8389" lon="6.20235">
        <ele>2202.9982910156</ele>
        <time>2020-08-16T07:41:36Z</time>
      </trkpt>
      <trkpt lat="44.83892" lon="6.2023">
        <ele>2202.0368652344</ele>
        <time>2020-08-16T07:42:00Z</time>
      </trkpt>
      <trkpt lat="44.83897" lon="6.20217">
        <ele>2200.5949707031</ele>
        <time>2020-08-16T07:42:14Z</time>
      </trkpt>
      <trkpt lat="44.839" lon="6.20207">
        <ele>2198.6723632812</ele>
        <time>2020-08-16T07:42:31Z</time>
      </trkpt>
      <trkpt lat="44.83901" lon="6.20197">
        <ele>2196.7497558594</ele>
        <time>2020-08-16T07:42:46Z</time>
      </trkpt>
      <trkpt lat="44.83904" lon="6.20184">
        <ele>2198.1916503906</ele>
        <time>2020-08-16T07:43:01Z</time>
      </trkpt>
      <trkpt lat="44.83903" lon="6.20174">
        <ele>2198.6723632812</ele>
        <time>2020-08-16T07:43:15Z</time>
      </trkpt>
      <trkpt lat="44.83904" lon="6.20163">
        <ele>2198.1916503906</ele>
        <time>2020-08-16T07:43:29Z</time>
      </trkpt>
      <trkpt lat="44.83908" lon="6.20149">
        <ele>2196.2692871094</ele>
        <time>2020-08-16T07:43:47Z</time>
      </trkpt>
      <trkpt lat="44.83912" lon="6.20142">
        <ele>2189.0593261719</ele>
        <time>2020-08-16T07:44:02Z</time>
      </trkpt>
      <trkpt lat="44.83915" lon="6.20135">
        <ele>2185.6945800781</ele>
        <time>2020-08-16T07:44:26Z</time>
      </trkpt>
      <trkpt lat="44.83924" lon="6.20127">
        <ele>2180.8881835938</ele>
        <time>2020-08-16T07:44:45Z</time>
      </trkpt>
      <trkpt lat="44.83938" lon="6.20119">
        <ele>2175.6008300781</ele>
        <time>2020-08-16T07:45:06Z</time>
      </trkpt>
      <trkpt lat="44.83941" lon="6.20115">
        <ele>2173.6782226562</ele>
        <time>2020-08-16T07:45:25Z</time>
      </trkpt>
      <trkpt lat="44.83943" lon="6.20113">
        <ele>2171.7553710938</ele>
        <time>2020-08-16T07:45:55Z</time>
      </trkpt>
      <trkpt lat="44.83937" lon="6.20112">
        <ele>2170.3134765625</ele>
        <time>2020-08-16T07:47:33Z</time>
      </trkpt>
      <trkpt lat="44.83929" lon="6.2011">
        <ele>2166.4682617188</ele>
        <time>2020-08-16T07:47:54Z</time>
      </trkpt>
      <trkpt lat="44.83922" lon="6.20109">
        <ele>2167.4294433594</ele>
        <time>2020-08-16T07:48:14Z</time>
      </trkpt>
      <trkpt lat="44.83912" lon="6.20105">
        <ele>2165.9875488281</ele>
        <time>2020-08-16T07:48:37Z</time>
      </trkpt>
      <trkpt lat="44.83908" lon="6.20106">
        <ele>2162.623046875</ele>
        <time>2020-08-16T07:48:52Z</time>
      </trkpt>
      <trkpt lat="44.83903" lon="6.20105">
        <ele>2161.6618652344</ele>
        <time>2020-08-16T07:49:07Z</time>
      </trkpt>
      <trkpt lat="44.83897" lon="6.20108">
        <ele>2158.7778320312</ele>
        <time>2020-08-16T07:49:24Z</time>
      </trkpt>
      <trkpt lat="44.83884" lon="6.20115">
        <ele>2155.8935546875</ele>
        <time>2020-08-16T07:49:50Z</time>
      </trkpt>
      <trkpt lat="44.83876" lon="6.20122">
        <ele>2152.5290527344</ele>
        <time>2020-08-16T07:50:12Z</time>
      </trkpt>
      <trkpt lat="44.83868" lon="6.20134">
        <ele>2151.0871582031</ele>
        <time>2020-08-16T07:50:30Z</time>
      </trkpt>
      <trkpt lat="44.83861" lon="6.20142">
        <ele>2147.72265625</ele>
        <time>2020-08-16T07:50:52Z</time>
      </trkpt>
      <trkpt lat="44.83849" lon="6.20158">
        <ele>2166.4682617188</ele>
        <time>2020-08-16T07:51:24Z</time>
      </trkpt>
      <trkpt lat="44.83845" lon="6.20165">
        <ele>2140.0322265625</ele>
        <time>2020-08-16T07:51:41Z</time>
      </trkpt>
      <trkpt lat="44.83831" lon="6.20176">
        <ele>2138.109375</ele>
        <time>2020-08-16T07:52:14Z</time>
      </trkpt>
      <trkpt lat="44.83825" lon="6.20183">
        <ele>2137.1479492188</ele>
        <time>2020-08-16T07:52:32Z</time>
      </trkpt>
      <trkpt lat="44.83824" lon="6.20185">
        <ele>2136.6672363281</ele>
        <time>2020-08-16T07:54:57Z</time>
      </trkpt>
      <trkpt lat="44.83827" lon="6.20175">
        <ele>2138.109375</ele>
        <time>2020-08-16T07:55:13Z</time>
      </trkpt>
      <trkpt lat="44.83827" lon="6.20165">
        <ele>2139.5512695312</ele>
        <time>2020-08-16T07:55:32Z</time>
      </trkpt>
      <trkpt lat="44.83828" lon="6.20152">
        <ele>2139.5512695312</ele>
        <time>2020-08-16T07:55:47Z</time>
      </trkpt>
      <trkpt lat="44.83828" lon="6.20139">
        <ele>2138.5900878906</ele>
        <time>2020-08-16T07:56:02Z</time>
      </trkpt>
      <trkpt lat="44.83827" lon="6.20137">
        <ele>2137.1479492188</ele>
        <time>2020-08-16T07:56:18Z</time>
      </trkpt>
      <trkpt lat="44.83818" lon="6.20145">
        <ele>2133.302734375</ele>
        <time>2020-08-16T07:56:37Z</time>
      </trkpt>
      <trkpt lat="44.83814" lon="6.20146">
        <ele>2131.3801269531</ele>
        <time>2020-08-16T07:56:53Z</time>
      </trkpt>
      <trkpt lat="44.83812" lon="6.20136">
        <ele>2128.4963378906</ele>
        <time>2020-08-16T07:57:11Z</time>
      </trkpt>
      <trkpt lat="44.83804" lon="6.20151">
        <ele>2125.1315917969</ele>
        <time>2020-08-16T07:57:30Z</time>
      </trkpt>
      <trkpt lat="44.83793" lon="6.20166">
        <ele>2123.208984375</ele>
        <time>2020-08-16T07:57:52Z</time>
      </trkpt>
      <trkpt lat="44.83786" lon="6.20179">
        <ele>2119.8442382812</ele>
        <time>2020-08-16T07:58:12Z</time>
      </trkpt>
      <trkpt lat="44.83783" lon="6.20173">
        <ele>2117.4409179688</ele>
        <time>2020-08-16T07:58:28Z</time>
      </trkpt>
      <trkpt lat="44.8378" lon="6.20164">
        <ele>2114.5571289062</ele>
        <time>2020-08-16T07:58:46Z</time>
      </trkpt>
      <trkpt lat="44.83778" lon="6.20157">
        <ele>2112.1538085938</ele>
        <time>2020-08-16T07:59:06Z</time>
      </trkpt>
      <trkpt lat="44.83767" lon="6.20164">
        <ele>2109.7504882812</ele>
        <time>2020-08-16T07:59:27Z</time>
      </trkpt>
      <trkpt lat="44.83763" lon="6.20173">
        <ele>2107.3471679688</ele>
        <time>2020-08-16T07:59:39Z</time>
      </trkpt>
      <trkpt lat="44.83755" lon="6.20199">
        <ele>2104.4631347656</ele>
        <time>2020-08-16T08:00:01Z</time>
      </trkpt>
      <trkpt lat="44.83742" lon="6.20209">
        <ele>2103.0212402344</ele>
        <time>2020-08-16T08:00:18Z</time>
      </trkpt>
      <trkpt lat="44.83729" lon="6.20219">
        <ele>2102.0598144531</ele>
        <time>2020-08-16T08:00:37Z</time>
      </trkpt>
      <trkpt lat="44.83726" lon="6.20227">
        <ele>2101.0986328125</ele>
        <time>2020-08-16T08:00:55Z</time>
      </trkpt>
      <trkpt lat="44.83719" lon="6.20232">
        <ele>2097.7341308594</ele>
        <time>2020-08-16T08:01:18Z</time>
      </trkpt>
      <trkpt lat="44.83717" lon="6.20226">
        <ele>2094.3693847656</ele>
        <time>2020-08-16T08:01:36Z</time>
      </trkpt>
      <trkpt lat="44.83714" lon="6.20217">
        <ele>2093.8889160156</ele>
        <time>2020-08-16T08:02:32Z</time>
      </trkpt>
      <trkpt lat="44.83711" lon="6.20202">
        <ele>2092.4470214844</ele>
        <time>2020-08-16T08:02:45Z</time>
      </trkpt>
      <trkpt lat="44.83712" lon="6.20188">
        <ele>2090.5239257812</ele>
        <time>2020-08-16T08:02:58Z</time>
      </trkpt>
      <trkpt lat="44.83717" lon="6.20176">
        <ele>2089.5627441406</ele>
        <time>2020-08-16T08:03:17Z</time>
      </trkpt>
      <trkpt lat="44.83719" lon="6.20165">
        <ele>2089.08203125</ele>
        <time>2020-08-16T08:03:37Z</time>
      </trkpt>
      <trkpt lat="44.8372" lon="6.20163">
        <ele>2088.1208496094</ele>
        <time>2020-08-16T08:03:40Z</time>
      </trkpt>
      <trkpt lat="44.83726" lon="6.20155">
        <ele>2089.5627441406</ele>
        <time>2020-08-16T08:03:54Z</time>
      </trkpt>
      <trkpt lat="44.83726" lon="6.20146">
        <ele>2089.08203125</ele>
        <time>2020-08-16T08:04:12Z</time>
      </trkpt>
      <trkpt lat="44.83728" lon="6.20136">
        <ele>2088.1208496094</ele>
        <time>2020-08-16T08:04:26Z</time>
      </trkpt>
      <trkpt lat="44.83729" lon="6.20127">
        <ele>2086.6787109375</ele>
        <time>2020-08-16T08:04:43Z</time>
      </trkpt>
      <trkpt lat="44.8373" lon="6.20123">
        <ele>2084.7563476562</ele>
        <time>2020-08-16T08:05:03Z</time>
      </trkpt>
      <trkpt lat="44.83732" lon="6.20115">
        <ele>2084.2756347656</ele>
        <time>2020-08-16T08:05:17Z</time>
      </trkpt>
      <trkpt lat="44.83732" lon="6.20113">
        <ele>2084.7563476562</ele>
        <time>2020-08-16T08:05:19Z</time>
      </trkpt>
      <trkpt lat="44.83732" lon="6.20092">
        <ele>2082.3530273438</ele>
        <time>2020-08-16T08:05:38Z</time>
      </trkpt>
      <trkpt lat="44.83733" lon="6.20083">
        <ele>2078.0270996094</ele>
        <time>2020-08-16T08:05:57Z</time>
      </trkpt>
      <trkpt lat="44.83737" lon="6.2007">
        <ele>2076.5852050781</ele>
        <time>2020-08-16T08:06:17Z</time>
      </trkpt>
      <trkpt lat="44.83744" lon="6.20066">
        <ele>2073.2204589844</ele>
        <time>2020-08-16T08:06:36Z</time>
      </trkpt>
      <trkpt lat="44.83748" lon="6.20059">
        <ele>2070.3364257812</ele>
        <time>2020-08-16T08:06:52Z</time>
      </trkpt>
      <trkpt lat="44.83749" lon="6.20054">
        <ele>2067.9331054688</ele>
        <time>2020-08-16T08:07:10Z</time>
      </trkpt>
      <trkpt lat="44.8375" lon="6.20051">
        <ele>2067.9331054688</ele>
        <time>2020-08-16T08:07:12Z</time>
      </trkpt>
      <trkpt lat="44.83743" lon="6.2005">
        <ele>2068.89453125</ele>
        <time>2020-08-16T08:07:27Z</time>
      </trkpt>
      <trkpt lat="44.83736" lon="6.20047">
        <ele>2068.89453125</ele>
        <time>2020-08-16T08:07:47Z</time>
      </trkpt>
      <trkpt lat="44.83731" lon="6.20039">
        <ele>2067.4523925781</ele>
        <time>2020-08-16T08:08:05Z</time>
      </trkpt>
      <trkpt lat="44.83726" lon="6.20043">
        <ele>2067.4523925781</ele>
        <time>2020-08-16T08:08:24Z</time>
      </trkpt>
      <trkpt lat="44.83718" lon="6.20051">
        <ele>2066.9719238281</ele>
        <time>2020-08-16T08:08:43Z</time>
      </trkpt>
      <trkpt lat="44.83711" lon="6.20057">
        <ele>2066.4912109375</ele>
        <time>2020-08-16T08:09:00Z</time>
      </trkpt>
      <trkpt lat="44.83706" lon="6.20059">
        <ele>2064.087890625</ele>
        <time>2020-08-16T08:09:16Z</time>
      </trkpt>
      <trkpt lat="44.83697" lon="6.20067">
        <ele>2060.7233886719</ele>
        <time>2020-08-16T08:09:36Z</time>
      </trkpt>
      <trkpt lat="44.83679" lon="6.20077">
        <ele>2058.3198242188</ele>
        <time>2020-08-16T08:10:00Z</time>
      </trkpt>
      <trkpt lat="44.8367" lon="6.20084">
        <ele>2058.8005371094</ele>
        <time>2020-08-16T08:10:17Z</time>
      </trkpt>
      <trkpt lat="44.83659" lon="6.20091">
        <ele>2056.8779296875</ele>
        <time>2020-08-16T08:10:37Z</time>
      </trkpt>
      <trkpt lat="44.83653" lon="6.20105">
        <ele>2053.994140625</ele>
        <time>2020-08-16T08:10:54Z</time>
      </trkpt>
      <trkpt lat="44.8365" lon="6.2011">
        <ele>2049.6682128906</ele>
        <time>2020-08-16T08:11:10Z</time>
      </trkpt>
      <trkpt lat="44.8365" lon="6.2011">
        <ele>2049.1875</ele>
        <time>2020-08-16T08:13:13Z</time>
      </trkpt>
      <trkpt lat="44.83657" lon="6.20122">
        <ele>2044.380859375</ele>
        <time>2020-08-16T08:16:30Z</time>
      </trkpt>
      <trkpt lat="44.83652" lon="6.20116">
        <ele>2042.4582519531</ele>
        <time>2020-08-16T08:21:27Z</time>
      </trkpt>
      <trkpt lat="44.83643" lon="6.20113">
        <ele>2041.0161132812</ele>
        <time>2020-08-16T08:21:50Z</time>
      </trkpt>
      <trkpt lat="44.83636" lon="6.20111">
        <ele>2040.5354003906</ele>
        <time>2020-08-16T08:22:05Z</time>
      </trkpt>
      <trkpt lat="44.83634" lon="6.20113">
        <ele>2039.0935058594</ele>
        <time>2020-08-16T08:22:43Z</time>
      </trkpt>
      <trkpt lat="44.83631" lon="6.20128">
        <ele>2041.0161132812</ele>
        <time>2020-08-16T08:22:59Z</time>
      </trkpt>
      <trkpt lat="44.83627" lon="6.20133">
        <ele>2041.0161132812</ele>
        <time>2020-08-16T08:23:15Z</time>
      </trkpt>
      <trkpt lat="44.83625" lon="6.2014">
        <ele>2042.4582519531</ele>
        <time>2020-08-16T08:23:32Z</time>
      </trkpt>
      <trkpt lat="44.83618" lon="6.20155">
        <ele>2039.0935058594</ele>
        <time>2020-08-16T08:23:56Z</time>
      </trkpt>
      <trkpt lat="44.83608" lon="6.20156">
        <ele>2034.287109375</ele>
        <time>2020-08-16T08:24:14Z</time>
      </trkpt>
      <trkpt lat="44.83596" lon="6.20153">
        <ele>2029.48046875</ele>
        <time>2020-08-16T08:24:32Z</time>
      </trkpt>
      <trkpt lat="44.836" lon="6.20142">
        <ele>2026.1157226562</ele>
        <time>2020-08-16T08:24:51Z</time>
      </trkpt>
      <trkpt lat="44.83605" lon="6.20134">
        <ele>2024.1931152344</ele>
        <time>2020-08-16T08:25:05Z</time>
      </trkpt>
      <trkpt lat="44.83603" lon="6.20125">
        <ele>2020.8286132812</ele>
        <time>2020-08-16T08:25:23Z</time>
      </trkpt>
      <trkpt lat="44.83601" lon="6.20112">
        <ele>2017.4638671875</ele>
        <time>2020-08-16T08:25:42Z</time>
      </trkpt>
      <trkpt lat="44.83596" lon="6.20104">
        <ele>2015.0607910156</ele>
        <time>2020-08-16T08:26:14Z</time>
      </trkpt>
      <trkpt lat="44.8359" lon="6.20108">
        <ele>2012.6574707031</ele>
        <time>2020-08-16T08:26:33Z</time>
      </trkpt>
      <trkpt lat="44.83584" lon="6.20105">
        <ele>2007.8508300781</ele>
        <time>2020-08-16T08:27:03Z</time>
      </trkpt>
      <trkpt lat="44.83587" lon="6.20095">
        <ele>2005.4475097656</ele>
        <time>2020-08-16T08:27:19Z</time>
      </trkpt>
      <trkpt lat="44.83578" lon="6.20098">
        <ele>2005.4475097656</ele>
        <time>2020-08-16T08:27:36Z</time>
      </trkpt>
      <trkpt lat="44.83577" lon="6.20099">
        <ele>2003.5249023438</ele>
        <time>2020-08-16T08:27:52Z</time>
      </trkpt>
      <trkpt lat="44.83578" lon="6.20097">
        <ele>2003.0441894531</ele>
        <time>2020-08-16T08:27:53Z</time>
      </trkpt>
      <trkpt lat="44.83584" lon="6.20075">
        <ele>1997.2763671875</ele>
        <time>2020-08-16T08:28:11Z</time>
      </trkpt>
      <trkpt lat="44.83582" lon="6.20068">
        <ele>1995.353515625</ele>
        <time>2020-08-16T08:28:25Z</time>
      </trkpt>
      <trkpt lat="44.83573" lon="6.20073">
        <ele>1994.8728027344</ele>
        <time>2020-08-16T08:28:48Z</time>
      </trkpt>
      <trkpt lat="44.83561" lon="6.20076">
        <ele>1990.06640625</ele>
        <time>2020-08-16T08:29:17Z</time>
      </trkpt>
      <trkpt lat="44.83559" lon="6.20075">
        <ele>1989.1049804688</ele>
        <time>2020-08-16T08:29:31Z</time>
      </trkpt>
      <trkpt lat="44.83552" lon="6.20074">
        <ele>1988.1437988281</ele>
        <time>2020-08-16T08:29:47Z</time>
      </trkpt>
      <trkpt lat="44.8355" lon="6.2008">
        <ele>1985.7404785156</ele>
        <time>2020-08-16T08:30:08Z</time>
      </trkpt>
      <trkpt lat="44.83539" lon="6.20081">
        <ele>1982.8564453125</ele>
        <time>2020-08-16T08:30:26Z</time>
      </trkpt>
      <trkpt lat="44.83532" lon="6.20089">
        <ele>1980.4533691406</ele>
        <time>2020-08-16T08:30:46Z</time>
      </trkpt>
      <trkpt lat="44.83528" lon="6.20085">
        <ele>1979.0109863281</ele>
        <time>2020-08-16T08:31:04Z</time>
      </trkpt>
      <trkpt lat="44.8353" lon="6.2008">
        <ele>1978.5305175781</ele>
        <time>2020-08-16T08:31:35Z</time>
      </trkpt>
      <trkpt lat="44.83532" lon="6.20067">
        <ele>1976.1271972656</ele>
        <time>2020-08-16T08:31:51Z</time>
      </trkpt>
      <trkpt lat="44.83531" lon="6.20058">
        <ele>1974.2045898438</ele>
        <time>2020-08-16T08:32:07Z</time>
      </trkpt>
      <trkpt lat="44.83529" lon="6.20055">
        <ele>1974.2045898438</ele>
        <time>2020-08-16T08:32:30Z</time>
      </trkpt>
      <trkpt lat="44.83531" lon="6.20047">
        <ele>1974.2045898438</ele>
        <time>2020-08-16T08:32:48Z</time>
      </trkpt>
      <trkpt lat="44.83529" lon="6.20041">
        <ele>1974.2045898438</ele>
        <time>2020-08-16T08:33:06Z</time>
      </trkpt>
      <trkpt lat="44.83523" lon="6.20041">
        <ele>1974.6853027344</ele>
        <time>2020-08-16T08:33:24Z</time>
      </trkpt>
      <trkpt lat="44.83522" lon="6.20044">
        <ele>1974.6853027344</ele>
        <time>2020-08-16T08:33:48Z</time>
      </trkpt>
      <trkpt lat="44.83512" lon="6.2005">
        <ele>1970.8400878906</ele>
        <time>2020-08-16T08:34:18Z</time>
      </trkpt>
      <trkpt lat="44.83506" lon="6.20054">
        <ele>1969.3981933594</ele>
        <time>2020-08-16T08:34:41Z</time>
      </trkpt>
      <trkpt lat="44.835" lon="6.20064">
        <ele>1967.4753417969</ele>
        <time>2020-08-16T08:35:44Z</time>
      </trkpt>
      <trkpt lat="44.83491" lon="6.20071">
        <ele>1966.0334472656</ele>
        <time>2020-08-16T08:36:05Z</time>
      </trkpt>
      <trkpt lat="44.83486" lon="6.20067">
        <ele>1965.5529785156</ele>
        <time>2020-08-16T08:36:25Z</time>
      </trkpt>
      <trkpt lat="44.83486" lon="6.20065">
        <ele>1964.5915527344</ele>
        <time>2020-08-16T08:36:53Z</time>
      </trkpt>
      <trkpt lat="44.83489" lon="6.20061">
        <ele>1962.1879882812</ele>
        <time>2020-08-16T08:37:15Z</time>
      </trkpt>
      <trkpt lat="44.83488" lon="6.20055">
        <ele>1958.3427734375</ele>
        <time>2020-08-16T08:37:31Z</time>
      </trkpt>
      <trkpt lat="44.83485" lon="6.20041">
        <ele>1956.4201660156</ele>
        <time>2020-08-16T08:37:52Z</time>
      </trkpt>
      <trkpt lat="44.83483" lon="6.20035">
        <ele>1955.458984375</ele>
        <time>2020-08-16T08:38:06Z</time>
      </trkpt>
      <trkpt lat="44.83478" lon="6.2003">
        <ele>1953.0556640625</ele>
        <time>2020-08-16T08:38:24Z</time>
      </trkpt>
      <trkpt lat="44.83472" lon="6.20025">
        <ele>1951.1330566406</ele>
        <time>2020-08-16T08:38:54Z</time>
      </trkpt>
      <trkpt lat="44.83464" lon="6.20018">
        <ele>1949.6911621094</ele>
        <time>2020-08-16T08:39:16Z</time>
      </trkpt>
      <trkpt lat="44.83461" lon="6.20009">
        <ele>1946.3264160156</ele>
        <time>2020-08-16T08:39:40Z</time>
      </trkpt>
      <trkpt lat="44.83461" lon="6.19993">
        <ele>1941.0390625</ele>
        <time>2020-08-16T08:42:00Z</time>
      </trkpt>
      <trkpt lat="44.83466" lon="6.19976">
        <ele>1936.2326660156</ele>
        <time>2020-08-16T08:42:52Z</time>
      </trkpt>
      <trkpt lat="44.83469" lon="6.19963">
        <ele>1932.3874511719</ele>
        <time>2020-08-16T08:43:15Z</time>
      </trkpt>
      <trkpt lat="44.83461" lon="6.19966">
        <ele>1930.9453125</ele>
        <time>2020-08-16T08:43:36Z</time>
      </trkpt>
      <trkpt lat="44.83458" lon="6.19968">
        <ele>1929.9838867188</ele>
        <time>2020-08-16T08:44:00Z</time>
      </trkpt>
      <trkpt lat="44.83462" lon="6.19952">
        <ele>1928.5419921875</ele>
        <time>2020-08-16T08:44:19Z</time>
      </trkpt>
      <trkpt lat="44.83465" lon="6.1995">
        <ele>1927.1000976562</ele>
        <time>2020-08-16T08:44:33Z</time>
      </trkpt>
      <trkpt lat="44.83477" lon="6.19938">
        <ele>1922.7741699219</ele>
        <time>2020-08-16T08:45:01Z</time>
      </trkpt>
      <trkpt lat="44.8348" lon="6.19917">
        <ele>1918.4482421875</ele>
        <time>2020-08-16T08:45:30Z</time>
      </trkpt>
      <trkpt lat="44.83484" lon="6.19904">
        <ele>1916.5256347656</ele>
        <time>2020-08-16T08:45:42Z</time>
      </trkpt>
      <trkpt lat="44.83483" lon="6.19897">
        <ele>1916.044921875</ele>
        <time>2020-08-16T08:45:45Z</time>
      </trkpt>
      <trkpt lat="44.83486" lon="6.19886">
        <ele>1915.5642089844</ele>
        <time>2020-08-16T08:46:01Z</time>
      </trkpt>
      <trkpt lat="44.83494" lon="6.19879">
        <ele>1911.7189941406</ele>
        <time>2020-08-16T08:46:23Z</time>
      </trkpt>
      <trkpt lat="44.83498" lon="6.1987">
        <ele>1909.3156738281</ele>
        <time>2020-08-16T08:46:41Z</time>
      </trkpt>
      <trkpt lat="44.83504" lon="6.19862">
        <ele>1906.9123535156</ele>
        <time>2020-08-16T08:46:58Z</time>
      </trkpt>
      <trkpt lat="44.83498" lon="6.19859">
        <ele>1901.14453125</ele>
        <time>2020-08-16T08:47:19Z</time>
      </trkpt>
      <trkpt lat="44.8349" lon="6.19852">
        <ele>1897.7797851562</ele>
        <time>2020-08-16T08:47:47Z</time>
      </trkpt>
      <trkpt lat="44.83479" lon="6.19852">
        <ele>1894.8957519531</ele>
        <time>2020-08-16T08:48:50Z</time>
      </trkpt>
      <trkpt lat="44.83476" lon="6.19854">
        <ele>1894.4150390625</ele>
        <time>2020-08-16T08:49:24Z</time>
      </trkpt>
      <trkpt lat="44.83477" lon="6.19844">
        <ele>1893.9345703125</ele>
        <time>2020-08-16T08:49:41Z</time>
      </trkpt>
      <trkpt lat="44.83484" lon="6.19843">
        <ele>1892.0119628906</ele>
        <time>2020-08-16T08:50:08Z</time>
      </trkpt>
      <trkpt lat="44.83498" lon="6.19835">
        <ele>1891.0505371094</ele>
        <time>2020-08-16T08:50:37Z</time>
      </trkpt>
      <trkpt lat="44.83498" lon="6.19827">
        <ele>1890.5698242188</ele>
        <time>2020-08-16T08:51:05Z</time>
      </trkpt>
      <trkpt lat="44.8349" lon="6.19815">
        <ele>1889.6086425781</ele>
        <time>2020-08-16T08:52:29Z</time>
      </trkpt>
      <trkpt lat="44.83477" lon="6.19804">
        <ele>1889.6086425781</ele>
        <time>2020-08-16T08:52:48Z</time>
      </trkpt>
      <trkpt lat="44.83475" lon="6.19804">
        <ele>1889.6086425781</ele>
        <time>2020-08-16T08:53:09Z</time>
      </trkpt>
      <trkpt lat="44.8346" lon="6.19786">
        <ele>1888.1667480469</ele>
        <time>2020-08-16T08:54:11Z</time>
      </trkpt>
      <trkpt lat="44.83447" lon="6.19768">
        <ele>1885.2827148438</ele>
        <time>2020-08-16T08:54:32Z</time>
      </trkpt>
      <trkpt lat="44.83444" lon="6.19763">
        <ele>1883.8405761719</ele>
        <time>2020-08-16T08:54:46Z</time>
      </trkpt>
      <trkpt lat="44.83443" lon="6.1976">
        <ele>1882.8791503906</ele>
        <time>2020-08-16T08:55:03Z</time>
      </trkpt>
      <trkpt lat="44.83436" lon="6.19753">
        <ele>1880.9567871094</ele>
        <time>2020-08-16T08:55:18Z</time>
      </trkpt>
      <trkpt lat="44.83436" lon="6.1975">
        <ele>1880.4760742188</ele>
        <time>2020-08-16T08:55:22Z</time>
      </trkpt>
      <trkpt lat="44.83445" lon="6.19732">
        <ele>1879.9953613281</ele>
        <time>2020-08-16T08:55:40Z</time>
      </trkpt>
      <trkpt lat="44.83447" lon="6.19718">
        <ele>1878.5534667969</ele>
        <time>2020-08-16T08:56:02Z</time>
      </trkpt>
      <trkpt lat="44.8344" lon="6.19722">
        <ele>1877.5920410156</ele>
        <time>2020-08-16T08:56:22Z</time>
      </trkpt>
      <trkpt lat="44.83431" lon="6.19727">
        <ele>1881.4372558594</ele>
        <time>2020-08-16T08:56:50Z</time>
      </trkpt>
      <trkpt lat="44.8342" lon="6.19731">
        <ele>1882.8791503906</ele>
        <time>2020-08-16T08:57:04Z</time>
      </trkpt>
      <trkpt lat="44.83409" lon="6.19723">
        <ele>1884.3215332031</ele>
        <time>2020-08-16T08:57:18Z</time>
      </trkpt>
      <trkpt lat="44.83419" lon="6.19723">
        <ele>1886.244140625</ele>
        <time>2020-08-16T08:57:37Z</time>
      </trkpt>
      <trkpt lat="44.83422" lon="6.19715">
        <ele>1887.6860351562</ele>
        <time>2020-08-16T08:57:56Z</time>
      </trkpt>
      <trkpt lat="44.8343" lon="6.19702">
        <ele>1888.1667480469</ele>
        <time>2020-08-16T08:58:11Z</time>
      </trkpt>
      <trkpt lat="44.83431" lon="6.1969">
        <ele>1888.6474609375</ele>
        <time>2020-08-16T08:58:24Z</time>
      </trkpt>
      <trkpt lat="44.83435" lon="6.19687">
        <ele>1888.6474609375</ele>
        <time>2020-08-16T08:58:26Z</time>
      </trkpt>
      <trkpt lat="44.83438" lon="6.19678">
        <ele>1888.6474609375</ele>
        <time>2020-08-16T08:58:34Z</time>
      </trkpt>
      <trkpt lat="44.83439" lon="6.19675">
        <ele>1889.1279296875</ele>
        <time>2020-08-16T08:58:38Z</time>
      </trkpt>
      <trkpt lat="44.83443" lon="6.19668">
        <ele>1888.6474609375</ele>
        <time>2020-08-16T08:58:50Z</time>
      </trkpt>
      <trkpt lat="44.83442" lon="6.19666">
        <ele>1889.6086425781</ele>
        <time>2020-08-16T08:59:17Z</time>
      </trkpt>
      <trkpt lat="44.83445" lon="6.19657">
        <ele>1891.0505371094</ele>
        <time>2020-08-16T08:59:38Z</time>
      </trkpt>
      <trkpt lat="44.83441" lon="6.1965">
        <ele>1894.4150390625</ele>
        <time>2020-08-16T09:00:05Z</time>
      </trkpt>
      <trkpt lat="44.83435" lon="6.19638">
        <ele>1897.7797851562</ele>
        <time>2020-08-16T09:00:34Z</time>
      </trkpt>
      <trkpt lat="44.83428" lon="6.19624">
        <ele>1901.14453125</ele>
        <time>2020-08-16T09:01:02Z</time>
      </trkpt>
      <trkpt lat="44.83424" lon="6.19615">
        <ele>1904.0285644531</ele>
        <time>2020-08-16T09:01:27Z</time>
      </trkpt>
      <trkpt lat="44.83425" lon="6.1961">
        <ele>1906.431640625</ele>
        <time>2020-08-16T09:01:47Z</time>
      </trkpt>
      <trkpt lat="44.83418" lon="6.19611">
        <ele>1906.9123535156</ele>
        <time>2020-08-16T09:02:05Z</time>
      </trkpt>
      <trkpt lat="44.83415" lon="6.19607">
        <ele>1906.431640625</ele>
        <time>2020-08-16T09:03:04Z</time>
      </trkpt>
      <trkpt lat="44.83418" lon="6.19593">
        <ele>1890.0893554688</ele>
        <time>2020-08-16T09:09:46Z</time>
      </trkpt>
      <trkpt lat="44.83414" lon="6.19584">
        <ele>1886.244140625</ele>
        <time>2020-08-16T09:10:39Z</time>
      </trkpt>
      <trkpt lat="44.83407" lon="6.19578">
        <ele>1869.9016113281</ele>
        <time>2020-08-16T09:11:08Z</time>
      </trkpt>
      <trkpt lat="44.83401" lon="6.19567">
        <ele>1852.5979003906</ele>
        <time>2020-08-16T09:12:01Z</time>
      </trkpt>
      <trkpt lat="44.83397" lon="6.19572">
        <ele>1834.8134765625</ele>
        <time>2020-08-16T09:12:36Z</time>
      </trkpt>
      <trkpt lat="44.834" lon="6.19582">
        <ele>1823.7583007812</ele>
        <time>2020-08-16T09:13:04Z</time>
      </trkpt>
      <trkpt lat="44.83397" lon="6.19601">
        <ele>1811.2612304688</ele>
        <time>2020-08-16T09:14:16Z</time>
      </trkpt>
      <trkpt lat="44.83391" lon="6.1961">
        <ele>1808.8579101562</ele>
        <time>2020-08-16T09:14:40Z</time>
      </trkpt>
      <trkpt lat="44.83386" lon="6.19623">
        <ele>1807.8967285156</ele>
        <time>2020-08-16T09:15:01Z</time>
      </trkpt>
      <trkpt lat="44.83384" lon="6.19636">
        <ele>1808.3771972656</ele>
        <time>2020-08-16T09:15:27Z</time>
      </trkpt>
      <trkpt lat="44.83381" lon="6.1964">
        <ele>1807.8967285156</ele>
        <time>2020-08-16T09:15:47Z</time>
      </trkpt>
      <trkpt lat="44.83369" lon="6.19649">
        <ele>1802.1284179688</ele>
        <time>2020-08-16T09:16:12Z</time>
      </trkpt>
      <trkpt lat="44.8337" lon="6.19649">
        <ele>1794.9187011719</ele>
        <time>2020-08-16T09:16:40Z</time>
      </trkpt>
      <trkpt lat="44.83373" lon="6.19637">
        <ele>1793.4768066406</ele>
        <time>2020-08-16T09:16:57Z</time>
      </trkpt>
      <trkpt lat="44.83367" lon="6.19639">
        <ele>1792.0349121094</ele>
        <time>2020-08-16T09:17:14Z</time>
      </trkpt>
      <trkpt lat="44.83363" lon="6.19633">
        <ele>1791.0734863281</ele>
        <time>2020-08-16T09:17:31Z</time>
      </trkpt>
      <trkpt lat="44.83365" lon="6.19625">
        <ele>1789.1508789062</ele>
        <time>2020-08-16T09:17:59Z</time>
      </trkpt>
      <trkpt lat="44.83357" lon="6.19628">
        <ele>1787.2280273438</ele>
        <time>2020-08-16T09:18:25Z</time>
      </trkpt>
      <trkpt lat="44.83353" lon="6.19634">
        <ele>1786.7473144531</ele>
        <time>2020-08-16T09:18:51Z</time>
      </trkpt>
      <trkpt lat="44.83347" lon="6.19635">
        <ele>1786.2668457031</ele>
        <time>2020-08-16T09:19:08Z</time>
      </trkpt>
      <trkpt lat="44.8334" lon="6.1964">
        <ele>1786.2668457031</ele>
        <time>2020-08-16T09:19:25Z</time>
      </trkpt>
      <trkpt lat="44.83342" lon="6.19629">
        <ele>1783.8635253906</ele>
        <time>2020-08-16T09:19:41Z</time>
      </trkpt>
      <trkpt lat="44.83343" lon="6.19611">
        <ele>1779.5375976562</ele>
        <time>2020-08-16T09:20:10Z</time>
      </trkpt>
      <trkpt lat="44.8335" lon="6.19607">
        <ele>1776.1730957031</ele>
        <time>2020-08-16T09:20:26Z</time>
      </trkpt>
      <trkpt lat="44.83356" lon="6.19599">
        <ele>1774.7312011719</ele>
        <time>2020-08-16T09:20:47Z</time>
      </trkpt>
      <trkpt lat="44.8336" lon="6.19588">
        <ele>1772.3278808594</ele>
        <time>2020-08-16T09:21:20Z</time>
      </trkpt>
      <trkpt lat="44.83366" lon="6.1957">
        <ele>1770.8857421875</ele>
        <time>2020-08-16T09:21:41Z</time>
      </trkpt>
      <trkpt lat="44.83365" lon="6.19553">
        <ele>1769.9243164062</ele>
        <time>2020-08-16T09:22:01Z</time>
      </trkpt>
      <trkpt lat="44.83367" lon="6.19545">
        <ele>1768.0017089844</ele>
        <time>2020-08-16T09:22:24Z</time>
      </trkpt>
      <trkpt lat="44.83366" lon="6.19534">
        <ele>1768.482421875</ele>
        <time>2020-08-16T09:22:41Z</time>
      </trkpt>
      <trkpt lat="44.83365" lon="6.19526">
        <ele>1768.9631347656</ele>
        <time>2020-08-16T09:22:58Z</time>
      </trkpt>
      <trkpt lat="44.83362" lon="6.19515">
        <ele>1769.9243164062</ele>
        <time>2020-08-16T09:23:21Z</time>
      </trkpt>
      <trkpt lat="44.83356" lon="6.19506">
        <ele>1769.9243164062</ele>
        <time>2020-08-16T09:23:35Z</time>
      </trkpt>
      <trkpt lat="44.83361" lon="6.19496">
        <ele>1768.482421875</ele>
        <time>2020-08-16T09:23:54Z</time>
      </trkpt>
      <trkpt lat="44.8336" lon="6.1948">
        <ele>1766.5598144531</ele>
        <time>2020-08-16T09:24:14Z</time>
      </trkpt>
      <trkpt lat="44.83352" lon="6.1947">
        <ele>1761.7534179688</ele>
        <time>2020-08-16T09:24:29Z</time>
      </trkpt>
      <trkpt lat="44.83344" lon="6.1946">
        <ele>1755.5046386719</ele>
        <time>2020-08-16T09:25:04Z</time>
      </trkpt>
      <trkpt lat="44.83337" lon="6.19455">
        <ele>1746.8527832031</ele>
        <time>2020-08-16T09:25:39Z</time>
      </trkpt>
      <trkpt lat="44.83339" lon="6.19461">
        <ele>1741.5656738281</ele>
        <time>2020-08-16T09:26:12Z</time>
      </trkpt>
      <trkpt lat="44.83337" lon="6.19475">
        <ele>1742.0463867188</ele>
        <time>2020-08-16T09:26:33Z</time>
      </trkpt>
      <trkpt lat="44.83336" lon="6.1948">
        <ele>1742.0463867188</ele>
        <time>2020-08-16T09:26:37Z</time>
      </trkpt>
      <trkpt lat="44.8333" lon="6.19506">
        <ele>1741.0849609375</ele>
        <time>2020-08-16T09:26:55Z</time>
      </trkpt>
      <trkpt lat="44.83323" lon="6.19523">
        <ele>1738.681640625</ele>
        <time>2020-08-16T09:27:11Z</time>
      </trkpt>
      <trkpt lat="44.83325" lon="6.19513">
        <ele>1735.3168945312</ele>
        <time>2020-08-16T09:27:34Z</time>
      </trkpt>
      <trkpt lat="44.83327" lon="6.19495">
        <ele>1730.9912109375</ele>
        <time>2020-08-16T09:28:06Z</time>
      </trkpt>
      <trkpt lat="44.83326" lon="6.19491">
        <ele>1729.068359375</ele>
        <time>2020-08-16T09:28:25Z</time>
      </trkpt>
      <trkpt lat="44.83319" lon="6.19479">
        <ele>1724.2619628906</ele>
        <time>2020-08-16T09:28:44Z</time>
      </trkpt>
      <trkpt lat="44.83316" lon="6.19472">
        <ele>1721.3776855469</ele>
        <time>2020-08-16T09:29:09Z</time>
      </trkpt>
      <trkpt lat="44.83305" lon="6.19464">
        <ele>1717.0520019531</ele>
        <time>2020-08-16T09:29:40Z</time>
      </trkpt>
      <trkpt lat="44.833" lon="6.19458">
        <ele>1714.16796875</ele>
        <time>2020-08-16T09:30:17Z</time>
      </trkpt>
      <trkpt lat="44.83293" lon="6.19449">
        <ele>1712.2453613281</ele>
        <time>2020-08-16T09:30:32Z</time>
      </trkpt>
      <trkpt lat="44.83294" lon="6.19442">
        <ele>1708.4001464844</ele>
        <time>2020-08-16T09:30:58Z</time>
      </trkpt>
      <trkpt lat="44.83285" lon="6.19448">
        <ele>1707.4387207031</ele>
        <time>2020-08-16T09:31:35Z</time>
      </trkpt>
      <trkpt lat="44.8328" lon="6.19458">
        <ele>1707.9194335938</ele>
        <time>2020-08-16T09:31:50Z</time>
      </trkpt>
      <trkpt lat="44.83276" lon="6.19462">
        <ele>1708.880859375</ele>
        <time>2020-08-16T09:32:03Z</time>
      </trkpt>
      <trkpt lat="44.8328" lon="6.19465">
        <ele>1706.9580078125</ele>
        <time>2020-08-16T09:32:18Z</time>
      </trkpt>
      <trkpt lat="44.8328" lon="6.19465">
        <ele>1706.4772949219</ele>
        <time>2020-08-16T09:32:48Z</time>
      </trkpt>
      <trkpt lat="44.83287" lon="6.1947">
        <ele>1707.9194335938</ele>
        <time>2020-08-16T09:33:03Z</time>
      </trkpt>
      <trkpt lat="44.8329" lon="6.19485">
        <ele>1705.9965820312</ele>
        <time>2020-08-16T09:33:18Z</time>
      </trkpt>
      <trkpt lat="44.83287" lon="6.19495">
        <ele>1704.07421875</ele>
        <time>2020-08-16T09:33:43Z</time>
      </trkpt>
      <trkpt lat="44.83286" lon="6.19505">
        <ele>1701.6708984375</ele>
        <time>2020-08-16T09:34:10Z</time>
      </trkpt>
      <trkpt lat="44.83279" lon="6.19514">
        <ele>1700.7094726562</ele>
        <time>2020-08-16T09:34:24Z</time>
      </trkpt>
      <trkpt lat="44.8328" lon="6.19512">
        <ele>1696.3837890625</ele>
        <time>2020-08-16T09:34:42Z</time>
      </trkpt>
      <trkpt lat="44.83283" lon="6.19506">
        <ele>1692.0578613281</ele>
        <time>2020-08-16T09:35:06Z</time>
      </trkpt>
      <trkpt lat="44.83278" lon="6.19501">
        <ele>1687.7316894531</ele>
        <time>2020-08-16T09:35:24Z</time>
      </trkpt>
      <trkpt lat="44.83274" lon="6.19498">
        <ele>1686.7702636719</ele>
        <time>2020-08-16T09:35:42Z</time>
      </trkpt>
      <trkpt lat="44.83271" lon="6.19502">
        <ele>1685.3283691406</ele>
        <time>2020-08-16T09:36:18Z</time>
      </trkpt>
      <trkpt lat="44.83265" lon="6.19505">
        <ele>1686.2897949219</ele>
        <time>2020-08-16T09:41:31Z</time>
      </trkpt>
      <trkpt lat="44.8326" lon="6.19501">
        <ele>1683.4057617188</ele>
        <time>2020-08-16T09:41:46Z</time>
      </trkpt>
      <trkpt lat="44.8326" lon="6.19499">
        <ele>1681.0026855469</ele>
        <time>2020-08-16T09:42:05Z</time>
      </trkpt>
      <trkpt lat="44.83253" lon="6.1949">
        <ele>1679.0798339844</ele>
        <time>2020-08-16T09:42:49Z</time>
      </trkpt>
      <trkpt lat="44.8325" lon="6.1949">
        <ele>1677.6379394531</ele>
        <time>2020-08-16T09:43:22Z</time>
      </trkpt>
      <trkpt lat="44.83245" lon="6.19492">
        <ele>1678.1186523438</ele>
        <time>2020-08-16T09:43:46Z</time>
      </trkpt>
      <trkpt lat="44.8324" lon="6.19492">
        <ele>1677.1574707031</ele>
        <time>2020-08-16T09:44:03Z</time>
      </trkpt>
      <trkpt lat="44.83235" lon="6.19489">
        <ele>1675.234375</ele>
        <time>2020-08-16T09:44:29Z</time>
      </trkpt>
      <trkpt lat="44.8323" lon="6.19486">
        <ele>1673.3120117188</ele>
        <time>2020-08-16T09:45:02Z</time>
      </trkpt>
      <trkpt lat="44.83225" lon="6.19487">
        <ele>1672.8312988281</ele>
        <time>2020-08-16T09:45:31Z</time>
      </trkpt>
      <trkpt lat="44.83221" lon="6.19485">
        <ele>1672.3505859375</ele>
        <time>2020-08-16T09:45:44Z</time>
      </trkpt>
      <trkpt lat="44.83219" lon="6.19484">
        <ele>1670.4279785156</ele>
        <time>2020-08-16T09:45:57Z</time>
      </trkpt>
      <trkpt lat="44.83216" lon="6.19495">
        <ele>1666.1020507812</ele>
        <time>2020-08-16T09:46:20Z</time>
      </trkpt>
      <trkpt lat="44.83215" lon="6.19506">
        <ele>1663.2182617188</ele>
        <time>2020-08-16T09:46:39Z</time>
      </trkpt>
      <trkpt lat="44.83209" lon="6.19522">
        <ele>1658.8920898438</ele>
        <time>2020-08-16T09:47:02Z</time>
      </trkpt>
      <trkpt lat="44.83205" lon="6.19537">
        <ele>1657.4501953125</ele>
        <time>2020-08-16T09:47:24Z</time>
      </trkpt>
      <trkpt lat="44.83205" lon="6.19552">
        <ele>1652.6435546875</ele>
        <time>2020-08-16T09:47:38Z</time>
      </trkpt>
      <trkpt lat="44.83211" lon="6.19561">
        <ele>1647.8371582031</ele>
        <time>2020-08-16T09:47:54Z</time>
      </trkpt>
      <trkpt lat="44.83208" lon="6.19567">
        <ele>1644.953125</ele>
        <time>2020-08-16T09:48:10Z</time>
      </trkpt>
      <trkpt lat="44.83208" lon="6.19572">
        <ele>1643.9916992188</ele>
        <time>2020-08-16T09:48:17Z</time>
      </trkpt>
      <trkpt lat="44.83208" lon="6.19582">
        <ele>1642.0690917969</ele>
        <time>2020-08-16T09:48:30Z</time>
      </trkpt>
      <trkpt lat="44.83205" lon="6.1959">
        <ele>1643.0302734375</ele>
        <time>2020-08-16T09:48:43Z</time>
      </trkpt>
      <trkpt lat="44.83199" lon="6.19609">
        <ele>1642.5498046875</ele>
        <time>2020-08-16T09:48:58Z</time>
      </trkpt>
      <trkpt lat="44.83192" lon="6.19622">
        <ele>1643.9916992188</ele>
        <time>2020-08-16T09:49:17Z</time>
      </trkpt>
      <trkpt lat="44.83187" lon="6.19635">
        <ele>1644.4724121094</ele>
        <time>2020-08-16T09:49:29Z</time>
      </trkpt>
      <trkpt lat="44.83182" lon="6.19652">
        <ele>1646.8757324219</ele>
        <time>2020-08-16T09:49:49Z</time>
      </trkpt>
      <trkpt lat="44.83177" lon="6.19656">
        <ele>1648.7983398438</ele>
        <time>2020-08-16T09:50:11Z</time>
      </trkpt>
      <trkpt lat="44.83176" lon="6.19663">
        <ele>1647.8371582031</ele>
        <time>2020-08-16T09:50:45Z</time>
      </trkpt>
      <trkpt lat="44.83174" lon="6.19663">
        <ele>1646.8757324219</ele>
        <time>2020-08-16T09:51:04Z</time>
      </trkpt>
      <trkpt lat="44.83167" lon="6.19659">
        <ele>1646.8757324219</ele>
        <time>2020-08-16T09:51:13Z</time>
      </trkpt>
      <trkpt lat="44.83164" lon="6.19655">
        <ele>1646.8757324219</ele>
        <time>2020-08-16T09:51:17Z</time>
      </trkpt>
      <trkpt lat="44.83159" lon="6.19654">
        <ele>1647.8371582031</ele>
        <time>2020-08-16T09:51:33Z</time>
      </trkpt>
      <trkpt lat="44.83154" lon="6.19671">
        <ele>1648.3176269531</ele>
        <time>2020-08-16T09:51:53Z</time>
      </trkpt>
      <trkpt lat="44.83149" lon="6.19671">
        <ele>1648.7983398438</ele>
        <time>2020-08-16T09:52:07Z</time>
      </trkpt>
      <trkpt lat="44.83143" lon="6.19677">
        <ele>1650.2404785156</ele>
        <time>2020-08-16T09:52:25Z</time>
      </trkpt>
      <trkpt lat="44.83135" lon="6.19675">
        <ele>1651.6823730469</ele>
        <time>2020-08-16T09:52:42Z</time>
      </trkpt>
      <trkpt lat="44.83131" lon="6.19685">
        <ele>1651.2016601562</ele>
        <time>2020-08-16T09:52:52Z</time>
      </trkpt>
      <trkpt lat="44.83111" lon="6.19685">
        <ele>1650.2404785156</ele>
        <time>2020-08-16T09:53:12Z</time>
      </trkpt>
      <trkpt lat="44.8311" lon="6.19686">
        <ele>1650.2404785156</ele>
        <time>2020-08-16T09:53:13Z</time>
      </trkpt>
      <trkpt lat="44.83088" lon="6.19686">
        <ele>1649.2790527344</ele>
        <time>2020-08-16T09:53:35Z</time>
      </trkpt>
      <trkpt lat="44.83094" lon="6.19692">
        <ele>1646.3952636719</ele>
        <time>2020-08-16T09:53:51Z</time>
      </trkpt>
      <trkpt lat="44.83096" lon="6.19696">
        <ele>1642.5498046875</ele>
        <time>2020-08-16T09:54:02Z</time>
      </trkpt>
      <trkpt lat="44.83091" lon="6.19707">
        <ele>1637.7431640625</ele>
        <time>2020-08-16T09:54:20Z</time>
      </trkpt>
      <trkpt lat="44.83083" lon="6.19704">
        <ele>1634.859375</ele>
        <time>2020-08-16T09:54:38Z</time>
      </trkpt>
      <trkpt lat="44.8308" lon="6.19708">
        <ele>1631.9753417969</ele>
        <time>2020-08-16T09:54:58Z</time>
      </trkpt>
      <trkpt lat="44.8308" lon="6.19716">
        <ele>1631.0141601562</ele>
        <time>2020-08-16T09:55:15Z</time>
      </trkpt>
      <trkpt lat="44.83074" lon="6.19706">
        <ele>1629.5720214844</ele>
        <time>2020-08-16T09:55:32Z</time>
      </trkpt>
      <trkpt lat="44.83069" lon="6.19699">
        <ele>1628.1301269531</ele>
        <time>2020-08-16T09:55:53Z</time>
      </trkpt>
      <trkpt lat="44.83066" lon="6.197">
        <ele>1626.6879882812</ele>
        <time>2020-08-16T09:56:07Z</time>
      </trkpt>
      <trkpt lat="44.83063" lon="6.19693">
        <ele>1626.6879882812</ele>
        <time>2020-08-16T09:56:23Z</time>
      </trkpt>
      <trkpt lat="44.83058" lon="6.197">
        <ele>1625.2458496094</ele>
        <time>2020-08-16T09:56:42Z</time>
      </trkpt>
      <trkpt lat="44.83058" lon="6.19693">
        <ele>1623.3234863281</ele>
        <time>2020-08-16T09:57:02Z</time>
      </trkpt>
      <trkpt lat="44.83058" lon="6.19682">
        <ele>1619.4782714844</ele>
        <time>2020-08-16T09:57:21Z</time>
      </trkpt>
      <trkpt lat="44.83059" lon="6.1968">
        <ele>1615.6330566406</ele>
        <time>2020-08-16T09:57:43Z</time>
      </trkpt>
      <trkpt lat="44.8305" lon="6.19696">
        <ele>1615.15234375</ele>
        <time>2020-08-16T09:58:35Z</time>
      </trkpt>
      <trkpt lat="44.83041" lon="6.19707">
        <ele>1615.6330566406</ele>
        <time>2020-08-16T09:59:00Z</time>
      </trkpt>
      <trkpt lat="44.83037" lon="6.19722">
        <ele>1614.6716308594</ele>
        <time>2020-08-16T09:59:24Z</time>
      </trkpt>
      <trkpt lat="44.83028" lon="6.19706">
        <ele>1611.7875976562</ele>
        <time>2020-08-16T09:59:43Z</time>
      </trkpt>
      <trkpt lat="44.83022" lon="6.19708">
        <ele>1607.9423828125</ele>
        <time>2020-08-16T10:00:03Z</time>
      </trkpt>
      <trkpt lat="44.83009" lon="6.19701">
        <ele>1604.0971679688</ele>
        <time>2020-08-16T10:00:31Z</time>
      </trkpt>
      <trkpt lat="44.83002" lon="6.19699">
        <ele>1601.2131347656</ele>
        <time>2020-08-16T10:00:51Z</time>
      </trkpt>
      <trkpt lat="44.82993" lon="6.19697">
        <ele>1598.3291015625</ele>
        <time>2020-08-16T10:01:11Z</time>
      </trkpt>
      <trkpt lat="44.82993" lon="6.19699">
        <ele>1595.4450683594</ele>
        <time>2020-08-16T10:01:37Z</time>
      </trkpt>
      <trkpt lat="44.82991" lon="6.19704">
        <ele>1594.4836425781</ele>
        <time>2020-08-16T10:01:53Z</time>
      </trkpt>
      <trkpt lat="44.82984" lon="6.19708">
        <ele>1592.5612792969</ele>
        <time>2020-08-16T10:02:45Z</time>
      </trkpt>
      <trkpt lat="44.82975" lon="6.19708">
        <ele>1591.119140625</ele>
        <time>2020-08-16T10:03:18Z</time>
      </trkpt>
      <trkpt lat="44.8298" lon="6.1971">
        <ele>1589.1965332031</ele>
        <time>2020-08-16T10:03:31Z</time>
      </trkpt>
      <trkpt lat="44.82986" lon="6.19712">
        <ele>1586.3127441406</ele>
        <time>2020-08-16T10:03:46Z</time>
      </trkpt>
      <trkpt lat="44.82992" lon="6.19724">
        <ele>1580.544921875</ele>
        <time>2020-08-16T10:04:15Z</time>
      </trkpt>
      <trkpt lat="44.82997" lon="6.19729">
        <ele>1576.6994628906</ele>
        <time>2020-08-16T10:04:31Z</time>
      </trkpt>
      <trkpt lat="44.83004" lon="6.19729">
        <ele>1573.8154296875</ele>
        <time>2020-08-16T10:04:44Z</time>
      </trkpt>
      <trkpt lat="44.83009" lon="6.19749">
        <ele>1568.0476074219</ele>
        <time>2020-08-16T10:05:08Z</time>
      </trkpt>
      <trkpt lat="44.83008" lon="6.19749">
        <ele>1565.64453125</ele>
        <time>2020-08-16T10:05:24Z</time>
      </trkpt>
      <trkpt lat="44.83002" lon="6.19745">
        <ele>1564.6831054688</ele>
        <time>2020-08-16T10:05:36Z</time>
      </trkpt>
      <trkpt lat="44.82996" lon="6.1974">
        <ele>1563.7214355469</ele>
        <time>2020-08-16T10:05:50Z</time>
      </trkpt>
      <trkpt lat="44.82991" lon="6.19738">
        <ele>1563.7214355469</ele>
        <time>2020-08-16T10:06:03Z</time>
      </trkpt>
      <trkpt lat="44.82993" lon="6.19751">
        <ele>1562.7602539062</ele>
        <time>2020-08-16T10:06:18Z</time>
      </trkpt>
      <trkpt lat="44.82992" lon="6.19767">
        <ele>1562.2795410156</ele>
        <time>2020-08-16T10:06:37Z</time>
      </trkpt>
      <trkpt lat="44.82993" lon="6.19773">
        <ele>1562.7602539062</ele>
        <time>2020-08-16T10:06:54Z</time>
      </trkpt>
      <trkpt lat="44.82989" lon="6.19782">
        <ele>1563.2409667969</ele>
        <time>2020-08-16T10:07:24Z</time>
      </trkpt>
      <trkpt lat="44.82983" lon="6.19783">
        <ele>1563.7214355469</ele>
        <time>2020-08-16T10:07:47Z</time>
      </trkpt>
      <trkpt lat="44.82983" lon="6.19782">
        <ele>1563.2409667969</ele>
        <time>2020-08-16T10:08:08Z</time>
      </trkpt>
      <trkpt lat="44.82975" lon="6.19772">
        <ele>1560.3569335938</ele>
        <time>2020-08-16T10:08:24Z</time>
      </trkpt>
      <trkpt lat="44.82968" lon="6.19759">
        <ele>1558.4343261719</ele>
        <time>2020-08-16T10:08:42Z</time>
      </trkpt>
      <trkpt lat="44.82959" lon="6.1975">
        <ele>1556.9924316406</ele>
        <time>2020-08-16T10:09:03Z</time>
      </trkpt>
      <trkpt lat="44.82959" lon="6.19765">
        <ele>1555.5505371094</ele>
        <time>2020-08-16T10:09:26Z</time>
      </trkpt>
      <trkpt lat="44.82959" lon="6.19778">
        <ele>1556.51171875</ele>
        <time>2020-08-16T10:09:48Z</time>
      </trkpt>
      <trkpt lat="44.82956" lon="6.19796">
        <ele>1558.4343261719</ele>
        <time>2020-08-16T10:10:01Z</time>
      </trkpt>
      <trkpt lat="44.82953" lon="6.19803">
        <ele>1558.9150390625</ele>
        <time>2020-08-16T10:10:05Z</time>
      </trkpt>
      <trkpt lat="44.82942" lon="6.19824">
        <ele>1558.4343261719</ele>
        <time>2020-08-16T10:10:22Z</time>
      </trkpt>
      <trkpt lat="44.82938" lon="6.19829">
        <ele>1558.9150390625</ele>
        <time>2020-08-16T10:10:29Z</time>
      </trkpt>
      <trkpt lat="44.82931" lon="6.19842">
        <ele>1558.4343261719</ele>
        <time>2020-08-16T10:10:46Z</time>
      </trkpt>
      <trkpt lat="44.82928" lon="6.19841">
        <ele>1556.0310058594</ele>
        <time>2020-08-16T10:11:03Z</time>
      </trkpt>
      <trkpt lat="44.82926" lon="6.19846">
        <ele>1555.0698242188</ele>
        <time>2020-08-16T10:11:28Z</time>
      </trkpt>
      <trkpt lat="44.82921" lon="6.19842">
        <ele>1554.5891113281</ele>
        <time>2020-08-16T10:11:36Z</time>
      </trkpt>
      <trkpt lat="44.82912" lon="6.19828">
        <ele>1554.1086425781</ele>
        <time>2020-08-16T10:11:50Z</time>
      </trkpt>
      <trkpt lat="44.82908" lon="6.19818">
        <ele>1554.5891113281</ele>
        <time>2020-08-16T10:12:07Z</time>
      </trkpt>
      <trkpt lat="44.82907" lon="6.1981">
        <ele>1551.7053222656</ele>
        <time>2020-08-16T10:12:30Z</time>
      </trkpt>
      <trkpt lat="44.82901" lon="6.19819">
        <ele>1548.8212890625</ele>
        <time>2020-08-16T10:12:54Z</time>
      </trkpt>
      <trkpt lat="44.82896" lon="6.19832">
        <ele>1545.9372558594</ele>
        <time>2020-08-16T10:13:17Z</time>
      </trkpt>
      <trkpt lat="44.82891" lon="6.19842">
        <ele>1542.5727539062</ele>
        <time>2020-08-16T10:13:41Z</time>
      </trkpt>
      <trkpt lat="44.82886" lon="6.1984">
        <ele>1540.6499023438</ele>
        <time>2020-08-16T10:14:00Z</time>
      </trkpt>
      <trkpt lat="44.82876" lon="6.19825">
        <ele>1540.6499023438</ele>
        <time>2020-08-16T10:14:23Z</time>
      </trkpt>
      <trkpt lat="44.82873" lon="6.19818">
        <ele>1539.6887207031</ele>
        <time>2020-08-16T10:14:36Z</time>
      </trkpt>
      <trkpt lat="44.82871" lon="6.19806">
        <ele>1538.2468261719</ele>
        <time>2020-08-16T10:14:48Z</time>
      </trkpt>
      <trkpt lat="44.82864" lon="6.19791">
        <ele>1535.8435058594</ele>
        <time>2020-08-16T10:15:07Z</time>
      </trkpt>
      <trkpt lat="44.82864" lon="6.19792">
        <ele>1533.4401855469</ele>
        <time>2020-08-16T10:15:33Z</time>
      </trkpt>
      <trkpt lat="44.82865" lon="6.19797">
        <ele>1529.5947265625</ele>
        <time>2020-08-16T10:17:09Z</time>
      </trkpt>
      <trkpt lat="44.82866" lon="6.19799">
        <ele>1529.1140136719</ele>
        <time>2020-08-16T10:17:47Z</time>
      </trkpt>
      <trkpt lat="44.82851" lon="6.19815">
        <ele>1529.5947265625</ele>
        <time>2020-08-16T10:19:31Z</time>
      </trkpt>
      <trkpt lat="44.82842" lon="6.19811">
        <ele>1530.0754394531</ele>
        <time>2020-08-16T10:19:49Z</time>
      </trkpt>
      <trkpt lat="44.82833" lon="6.19808">
        <ele>1530.5561523438</ele>
        <time>2020-08-16T10:20:00Z</time>
      </trkpt>
      <trkpt lat="44.82818" lon="6.19793">
        <ele>1530.5561523438</ele>
        <time>2020-08-16T10:20:27Z</time>
      </trkpt>
      <trkpt lat="44.82816" lon="6.19784">
        <ele>1530.5561523438</ele>
        <time>2020-08-16T10:20:44Z</time>
      </trkpt>
      <trkpt lat="44.8281" lon="6.19801">
        <ele>1530.5561523438</ele>
        <time>2020-08-16T10:21:06Z</time>
      </trkpt>
      <trkpt lat="44.82801" lon="6.19806">
        <ele>1530.0754394531</ele>
        <time>2020-08-16T10:21:28Z</time>
      </trkpt>
      <trkpt lat="44.82793" lon="6.19804">
        <ele>1529.5947265625</ele>
        <time>2020-08-16T10:21:49Z</time>
      </trkpt>
      <trkpt lat="44.82786" lon="6.19801">
        <ele>1529.1140136719</ele>
        <time>2020-08-16T10:22:06Z</time>
      </trkpt>
      <trkpt lat="44.82778" lon="6.19791">
        <ele>1527.6721191406</ele>
        <time>2020-08-16T10:22:35Z</time>
      </trkpt>
      <trkpt lat="44.82766" lon="6.19809">
        <ele>1526.7109375</ele>
        <time>2020-08-16T10:22:59Z</time>
      </trkpt>
      <trkpt lat="44.82759" lon="6.19812">
        <ele>1527.1916503906</ele>
        <time>2020-08-16T10:23:30Z</time>
      </trkpt>
      <trkpt lat="44.82747" lon="6.19813">
        <ele>1527.6721191406</ele>
        <time>2020-08-16T10:23:53Z</time>
      </trkpt>
      <trkpt lat="44.82745" lon="6.19809">
        <ele>1527.6721191406</ele>
        <time>2020-08-16T10:24:08Z</time>
      </trkpt>
      <trkpt lat="44.82735" lon="6.19819">
        <ele>1527.1916503906</ele>
        <time>2020-08-16T10:24:27Z</time>
      </trkpt>
      <trkpt lat="44.82726" lon="6.19824">
        <ele>1528.1528320312</ele>
        <time>2020-08-16T10:24:46Z</time>
      </trkpt>
      <trkpt lat="44.82715" lon="6.1983">
        <ele>1528.1528320312</ele>
        <time>2020-08-16T10:25:11Z</time>
      </trkpt>
      <trkpt lat="44.82699" lon="6.19844">
        <ele>1524.7883300781</ele>
        <time>2020-08-16T10:25:54Z</time>
      </trkpt>
      <trkpt lat="44.82687" lon="6.19843">
        <ele>1524.3076171875</ele>
        <time>2020-08-16T10:26:09Z</time>
      </trkpt>
      <trkpt lat="44.82686" lon="6.19843">
        <ele>1522.8657226562</ele>
        <time>2020-08-16T10:26:37Z</time>
      </trkpt>
      <trkpt lat="44.82685" lon="6.19836">
        <ele>1518.0590820312</ele>
        <time>2020-08-16T10:26:52Z</time>
      </trkpt>
      <trkpt lat="44.82685" lon="6.19828">
        <ele>1513.7329101562</ele>
        <time>2020-08-16T10:27:09Z</time>
      </trkpt>
      <trkpt lat="44.82693" lon="6.19831">
        <ele>1506.5231933594</ele>
        <time>2020-08-16T10:27:22Z</time>
      </trkpt>
      <trkpt lat="44.82695" lon="6.19844">
        <ele>1504.6005859375</ele>
        <time>2020-08-16T10:27:34Z</time>
      </trkpt>
      <trkpt lat="44.82687" lon="6.19863">
        <ele>1503.6394042969</ele>
        <time>2020-08-16T10:27:52Z</time>
      </trkpt>
      <trkpt lat="44.82685" lon="6.19865">
        <ele>1503.6394042969</ele>
        <time>2020-08-16T10:27:53Z</time>
      </trkpt>
      <trkpt lat="44.82676" lon="6.19873">
        <ele>1496.4294433594</ele>
        <time>2020-08-16T10:28:08Z</time>
      </trkpt>
      <trkpt lat="44.82666" lon="6.19879">
        <ele>1487.7775878906</ele>
        <time>2020-08-16T10:28:27Z</time>
      </trkpt>
      <trkpt lat="44.82656" lon="6.19891">
        <ele>1484.8937988281</ele>
        <time>2020-08-16T10:28:43Z</time>
      </trkpt>
      <trkpt lat="44.82652" lon="6.19891">
        <ele>1480.5676269531</ele>
        <time>2020-08-16T10:28:58Z</time>
      </trkpt>
      <trkpt lat="44.82636" lon="6.19903">
        <ele>1475.2802734375</ele>
        <time>2020-08-16T10:29:19Z</time>
      </trkpt>
      <trkpt lat="44.82627" lon="6.19915">
        <ele>1464.2250976562</ele>
        <time>2020-08-16T10:29:38Z</time>
      </trkpt>
      <trkpt lat="44.82619" lon="6.19917">
        <ele>1457.49609375</ele>
        <time>2020-08-16T10:29:55Z</time>
      </trkpt>
      <trkpt lat="44.82613" lon="6.19918">
        <ele>1452.689453125</ele>
        <time>2020-08-16T10:30:13Z</time>
      </trkpt>
      <trkpt lat="44.82598" lon="6.19947">
        <ele>1439.7116699219</ele>
        <time>2020-08-16T10:30:33Z</time>
      </trkpt>
      <trkpt lat="44.82597" lon="6.19955">
        <ele>1431.5402832031</ele>
        <time>2020-08-16T10:30:42Z</time>
      </trkpt>
      <trkpt lat="44.82585" lon="6.19954">
        <ele>1415.6787109375</ele>
        <time>2020-08-16T10:30:59Z</time>
      </trkpt>
      <trkpt lat="44.82582" lon="6.1996">
        <ele>1409.4301757812</ele>
        <time>2020-08-16T10:31:13Z</time>
      </trkpt>
      <trkpt lat="44.82571" lon="6.19959">
        <ele>1397.4135742188</ele>
        <time>2020-08-16T10:31:30Z</time>
      </trkpt>
      <trkpt lat="44.82569" lon="6.19961">
        <ele>1393.568359375</ele>
        <time>2020-08-16T10:31:35Z</time>
      </trkpt>
      <trkpt lat="44.82568" lon="6.19963">
        <ele>1393.0876464844</ele>
        <time>2020-08-16T10:31:37Z</time>
      </trkpt>
      <trkpt lat="44.82566" lon="6.19968">
        <ele>1389.2424316406</ele>
        <time>2020-08-16T10:31:53Z</time>
      </trkpt>
      <trkpt lat="44.82556" lon="6.19961">
        <ele>1386.8388671875</ele>
        <time>2020-08-16T10:32:20Z</time>
      </trkpt>
      <trkpt lat="44.82559" lon="6.19963">
        <ele>1385.3969726562</ele>
        <time>2020-08-16T10:32:56Z</time>
      </trkpt>
      <trkpt lat="44.82549" lon="6.19979">
        <ele>1379.1484375</ele>
        <time>2020-08-16T10:33:22Z</time>
      </trkpt>
      <trkpt lat="44.82546" lon="6.19995">
        <ele>1374.3420410156</ele>
        <time>2020-08-16T10:33:38Z</time>
      </trkpt>
      <trkpt lat="44.82537" lon="6.19999">
        <ele>1370.0158691406</ele>
        <time>2020-08-16T10:33:52Z</time>
      </trkpt>
      <trkpt lat="44.82535" lon="6.19997">
        <ele>1369.5354003906</ele>
        <time>2020-08-16T10:33:54Z</time>
      </trkpt>
      <trkpt lat="44.8253" lon="6.20004">
        <ele>1359.9221191406</ele>
        <time>2020-08-16T10:34:09Z</time>
      </trkpt>
      <trkpt lat="44.82529" lon="6.20015">
        <ele>1352.2314453125</ele>
        <time>2020-08-16T10:34:24Z</time>
      </trkpt>
      <trkpt lat="44.82522" lon="6.2002">
        <ele>1343.0991210938</ele>
        <time>2020-08-16T10:34:42Z</time>
      </trkpt>
      <trkpt lat="44.82524" lon="6.20015">
        <ele>1340.6958007812</ele>
        <time>2020-08-16T10:35:05Z</time>
      </trkpt>
      <trkpt lat="44.82516" lon="6.20026">
        <ele>1338.2924804688</ele>
        <time>2020-08-16T10:35:43Z</time>
      </trkpt>
      <trkpt lat="44.82509" lon="6.20042">
        <ele>1336.3698730469</ele>
        <time>2020-08-16T10:36:01Z</time>
      </trkpt>
      <trkpt lat="44.82507" lon="6.20049">
        <ele>1334.447265625</ele>
        <time>2020-08-16T10:36:12Z</time>
      </trkpt>
      <trkpt lat="44.82499" lon="6.20059">
        <ele>1332.5246582031</ele>
        <time>2020-08-16T10:36:30Z</time>
      </trkpt>
      <trkpt lat="44.82495" lon="6.20051">
        <ele>1332.5246582031</ele>
        <time>2020-08-16T10:36:59Z</time>
      </trkpt>
      <trkpt lat="44.82491" lon="6.20055">
        <ele>1332.5246582031</ele>
        <time>2020-08-16T10:38:08Z</time>
      </trkpt>
      <trkpt lat="44.82487" lon="6.20071">
        <ele>1331.0827636719</ele>
        <time>2020-08-16T10:38:19Z</time>
      </trkpt>
      <trkpt lat="44.82479" lon="6.20101">
        <ele>1324.353515625</ele>
        <time>2020-08-16T10:38:43Z</time>
      </trkpt>
      <trkpt lat="44.82476" lon="6.20115">
        <ele>1323.3920898438</ele>
        <time>2020-08-16T10:39:02Z</time>
      </trkpt>
      <trkpt lat="44.82471" lon="6.20123">
        <ele>1320.02734375</ele>
        <time>2020-08-16T10:39:18Z</time>
      </trkpt>
      <trkpt lat="44.82471" lon="6.20127">
        <ele>1319.0661621094</ele>
        <time>2020-08-16T10:39:21Z</time>
      </trkpt>
      <trkpt lat="44.82469" lon="6.20146">
        <ele>1315.7016601562</ele>
        <time>2020-08-16T10:39:39Z</time>
      </trkpt>
      <trkpt lat="44.82468" lon="6.20148">
        <ele>1315.7016601562</ele>
        <time>2020-08-16T10:39:57Z</time>
      </trkpt>
      <trkpt lat="44.82469" lon="6.20148">
        <ele>1315.2209472656</ele>
        <time>2020-08-16T10:40:30Z</time>
      </trkpt>
      <trkpt lat="44.82469" lon="6.20156">
        <ele>1309.453125</ele>
        <time>2020-08-16T10:41:03Z</time>
      </trkpt>
      <trkpt lat="44.8246" lon="6.20169">
        <ele>1306.5688476562</ele>
        <time>2020-08-16T10:41:24Z</time>
      </trkpt>
      <trkpt lat="44.82448" lon="6.20179">
        <ele>1302.2429199219</ele>
        <time>2020-08-16T10:41:42Z</time>
      </trkpt>
      <trkpt lat="44.82443" lon="6.20198">
        <ele>1297.4365234375</ele>
        <time>2020-08-16T10:42:00Z</time>
      </trkpt>
      <trkpt lat="44.82443" lon="6.20205">
        <ele>1295.5139160156</ele>
        <time>2020-08-16T10:42:12Z</time>
      </trkpt>
      <trkpt lat="44.82443" lon="6.20205">
        <ele>1293.5913085938</ele>
        <time>2020-08-16T10:43:52Z</time>
      </trkpt>
      <trkpt lat="44.82438" lon="6.20204">
        <ele>1293.1105957031</ele>
        <time>2020-08-16T10:44:49Z</time>
      </trkpt>
      <trkpt lat="44.82421" lon="6.20212">
        <ele>1289.2651367188</ele>
        <time>2020-08-16T10:45:13Z</time>
      </trkpt>
      <trkpt lat="44.8241" lon="6.20224">
        <ele>1285.9006347656</ele>
        <time>2020-08-16T10:45:32Z</time>
      </trkpt>
      <trkpt lat="44.82403" lon="6.20239">
        <ele>1283.0166015625</ele>
        <time>2020-08-16T10:45:50Z</time>
      </trkpt>
      <trkpt lat="44.82399" lon="6.20239">
        <ele>1281.0942382812</ele>
        <time>2020-08-16T10:46:03Z</time>
      </trkpt>
      <trkpt lat="44.82396" lon="6.20219">
        <ele>1276.7683105469</ele>
        <time>2020-08-16T10:46:22Z</time>
      </trkpt>
      <trkpt lat="44.82397" lon="6.20199">
        <ele>1273.4035644531</ele>
        <time>2020-08-16T10:46:42Z</time>
      </trkpt>
      <trkpt lat="44.82396" lon="6.20196">
        <ele>1271.9614257812</ele>
        <time>2020-08-16T10:46:58Z</time>
      </trkpt>
      <trkpt lat="44.82393" lon="6.20198">
        <ele>1268.1162109375</ele>
        <time>2020-08-16T10:47:18Z</time>
      </trkpt>
      <trkpt lat="44.82389" lon="6.20205">
        <ele>1266.1936035156</ele>
        <time>2020-08-16T10:47:38Z</time>
      </trkpt>
      <trkpt lat="44.82383" lon="6.20214">
        <ele>1263.7902832031</ele>
        <time>2020-08-16T10:48:01Z</time>
      </trkpt>
      <trkpt lat="44.82379" lon="6.20219">
        <ele>1262.3483886719</ele>
        <time>2020-08-16T10:48:19Z</time>
      </trkpt>
      <trkpt lat="44.82376" lon="6.20223">
        <ele>1257.0610351562</ele>
        <time>2020-08-16T10:48:34Z</time>
      </trkpt>
      <trkpt lat="44.82376" lon="6.20221">
        <ele>1256.5803222656</ele>
        <time>2020-08-16T10:48:36Z</time>
      </trkpt>
      <trkpt lat="44.82373" lon="6.20204">
        <ele>1255.1384277344</ele>
        <time>2020-08-16T10:48:52Z</time>
      </trkpt>
      <trkpt lat="44.82373" lon="6.20203">
        <ele>1255.1384277344</ele>
        <time>2020-08-16T10:49:21Z</time>
      </trkpt>
      <trkpt lat="44.82374" lon="6.20188">
        <ele>1250.8125</ele>
        <time>2020-08-16T10:49:39Z</time>
      </trkpt>
      <trkpt lat="44.82379" lon="6.20168">
        <ele>1248.8898925781</ele>
        <time>2020-08-16T10:50:02Z</time>
      </trkpt>
      <trkpt lat="44.82377" lon="6.20169">
        <ele>1249.8513183594</ele>
        <time>2020-08-16T10:50:19Z</time>
      </trkpt>
      <trkpt lat="44.82374" lon="6.20169">
        <ele>1250.33203125</ele>
        <time>2020-08-16T10:51:04Z</time>
      </trkpt>
      <trkpt lat="44.82367" lon="6.2018">
        <ele>1247.9287109375</ele>
        <time>2020-08-16T10:53:10Z</time>
      </trkpt>
      <trkpt lat="44.82362" lon="6.20186">
        <ele>1246.0061035156</ele>
        <time>2020-08-16T10:53:41Z</time>
      </trkpt>
      <trkpt lat="44.82362" lon="6.20187">
        <ele>1245.525390625</ele>
        <time>2020-08-16T10:54:38Z</time>
      </trkpt>
      <trkpt lat="44.82362" lon="6.20187">
        <ele>1244.5639648438</ele>
        <time>2020-08-16T10:54:59Z</time>
      </trkpt>
      <trkpt lat="44.82356" lon="6.20196">
        <ele>1243.1218261719</ele>
        <time>2020-08-16T10:55:40Z</time>
      </trkpt>
      <trkpt lat="44.82347" lon="6.20214">
        <ele>1239.7573242188</ele>
        <time>2020-08-16T10:56:06Z</time>
      </trkpt>
      <trkpt lat="44.8234" lon="6.20225">
        <ele>1238.7961425781</ele>
        <time>2020-08-16T10:56:23Z</time>
      </trkpt>
      <trkpt lat="44.82332" lon="6.20246">
        <ele>1233.5087890625</ele>
        <time>2020-08-16T10:56:46Z</time>
      </trkpt>
      <trkpt lat="44.82327" lon="6.20253">
        <ele>1232.0668945312</ele>
        <time>2020-08-16T10:57:03Z</time>
      </trkpt>
      <trkpt lat="44.82327" lon="6.20249">
        <ele>1231.5861816406</ele>
        <time>2020-08-16T10:57:05Z</time>
      </trkpt>
      <trkpt lat="44.82325" lon="6.20233">
        <ele>1225.8181152344</ele>
        <time>2020-08-16T10:57:20Z</time>
      </trkpt>
      <trkpt lat="44.82326" lon="6.20214">
        <ele>1222.4536132812</ele>
        <time>2020-08-16T10:57:37Z</time>
      </trkpt>
      <trkpt lat="44.82324" lon="6.20191">
        <ele>1215.724609375</ele>
        <time>2020-08-16T10:57:57Z</time>
      </trkpt>
      <trkpt lat="44.82323" lon="6.20173">
        <ele>1214.2824707031</ele>
        <time>2020-08-16T10:58:16Z</time>
      </trkpt>
      <trkpt lat="44.82324" lon="6.2016">
        <ele>1212.8405761719</ele>
        <time>2020-08-16T10:58:28Z</time>
      </trkpt>
      <trkpt lat="44.82326" lon="6.20145">
        <ele>1210.4370117188</ele>
        <time>2020-08-16T10:58:40Z</time>
      </trkpt>
      <trkpt lat="44.82322" lon="6.20138">
        <ele>1208.0339355469</ele>
        <time>2020-08-16T10:58:55Z</time>
      </trkpt>
      <trkpt lat="44.82313" lon="6.20153">
        <ele>1203.7080078125</ele>
        <time>2020-08-16T10:59:14Z</time>
      </trkpt>
      <trkpt lat="44.82302" lon="6.20162">
        <ele>1200.8239746094</ele>
        <time>2020-08-16T10:59:31Z</time>
      </trkpt>
      <trkpt lat="44.82294" lon="6.20174">
        <ele>1198.4206542969</ele>
        <time>2020-08-16T10:59:48Z</time>
      </trkpt>
      <trkpt lat="44.82289" lon="6.20186">
        <ele>1195.0559082031</ele>
        <time>2020-08-16T11:00:05Z</time>
      </trkpt>
      <trkpt lat="44.82283" lon="6.20186">
        <ele>1192.1721191406</ele>
        <time>2020-08-16T11:00:18Z</time>
      </trkpt>
      <trkpt lat="44.82282" lon="6.20174">
        <ele>1188.8076171875</ele>
        <time>2020-08-16T11:00:32Z</time>
      </trkpt>
      <trkpt lat="44.82281" lon="6.20161">
        <ele>1186.404296875</ele>
        <time>2020-08-16T11:00:47Z</time>
      </trkpt>
      <trkpt lat="44.82282" lon="6.20142">
        <ele>1182.0783691406</ele>
        <time>2020-08-16T11:01:05Z</time>
      </trkpt>
      <trkpt lat="44.82282" lon="6.20129">
        <ele>1180.6364746094</ele>
        <time>2020-08-16T11:01:23Z</time>
      </trkpt>
      <trkpt lat="44.82285" lon="6.20119">
        <ele>1178.2329101562</ele>
        <time>2020-08-16T11:01:37Z</time>
      </trkpt>
      <trkpt lat="44.82288" lon="6.20104">
        <ele>1176.791015625</ele>
        <time>2020-08-16T11:01:49Z</time>
      </trkpt>
      <trkpt lat="44.82288" lon="6.20098">
        <ele>1173.9069824219</ele>
        <time>2020-08-16T11:02:01Z</time>
      </trkpt>
      <trkpt lat="44.82277" lon="6.2011">
        <ele>1169.1005859375</ele>
        <time>2020-08-16T11:02:20Z</time>
      </trkpt>
      <trkpt lat="44.82268" lon="6.20123">
        <ele>1162.8518066406</ele>
        <time>2020-08-16T11:02:38Z</time>
      </trkpt>
      <trkpt lat="44.82258" lon="6.20139">
        <ele>1159.0065917969</ele>
        <time>2020-08-16T11:02:57Z</time>
      </trkpt>
      <trkpt lat="44.82249" lon="6.20153">
        <ele>1154.6806640625</ele>
        <time>2020-08-16T11:03:14Z</time>
      </trkpt>
      <trkpt lat="44.82248" lon="6.20154">
        <ele>1154.6806640625</ele>
        <time>2020-08-16T11:03:15Z</time>
      </trkpt>
      <trkpt lat="44.82235" lon="6.20174">
        <ele>1155.6420898438</ele>
        <time>2020-08-16T11:03:35Z</time>
      </trkpt>
      <trkpt lat="44.82226" lon="6.20182">
        <ele>1156.1225585938</ele>
        <time>2020-08-16T11:03:53Z</time>
      </trkpt>
      <trkpt lat="44.82226" lon="6.20177">
        <ele>1156.6032714844</ele>
        <time>2020-08-16T11:04:02Z</time>
      </trkpt>
      <trkpt lat="44.82223" lon="6.20163">
        <ele>1157.083984375</ele>
        <time>2020-08-16T11:04:18Z</time>
      </trkpt>
      <trkpt lat="44.82219" lon="6.20155">
        <ele>1157.083984375</ele>
        <time>2020-08-16T11:04:28Z</time>
      </trkpt>
      <trkpt lat="44.82219" lon="6.2014">
        <ele>1156.6032714844</ele>
        <time>2020-08-16T11:04:43Z</time>
      </trkpt>
      <trkpt lat="44.82215" lon="6.20124">
        <ele>1155.1613769531</ele>
        <time>2020-08-16T11:04:59Z</time>
      </trkpt>
      <trkpt lat="44.8222" lon="6.20103">
        <ele>1149.3935546875</ele>
        <time>2020-08-16T11:05:16Z</time>
      </trkpt>
      <trkpt lat="44.82217" lon="6.20082">
        <ele>1144.5866699219</ele>
        <time>2020-08-16T11:05:33Z</time>
      </trkpt>
      <trkpt lat="44.82209" lon="6.20085">
        <ele>1143.6254882812</ele>
        <time>2020-08-16T11:05:46Z</time>
      </trkpt>
      <trkpt lat="44.82201" lon="6.20082">
        <ele>1143.1447753906</ele>
        <time>2020-08-16T11:05:59Z</time>
      </trkpt>
      <trkpt lat="44.8219" lon="6.20079">
        <ele>1144.1062011719</ele>
        <time>2020-08-16T11:06:16Z</time>
      </trkpt>
      <trkpt lat="44.8219" lon="6.2008">
        <ele>1144.5866699219</ele>
        <time>2020-08-16T11:07:19Z</time>
      </trkpt>
      <trkpt lat="44.82191" lon="6.20083">
        <ele>1144.1062011719</ele>
        <time>2020-08-16T11:08:35Z</time>
      </trkpt>
      <trkpt lat="44.82191" lon="6.20084">
        <ele>1144.1062011719</ele>
        <time>2020-08-16T11:11:26Z</time>
      </trkpt>
      <trkpt lat="44.82199" lon="6.20086">
        <ele>1134.9738769531</ele>
        <time>2020-08-16T12:06:17Z</time>
      </trkpt>
      <trkpt lat="44.822" lon="6.20087">
        <ele>1132.08984375</ele>
        <time>2020-08-16T12:07:05Z</time>
      </trkpt>
      <trkpt lat="44.82194" lon="6.20084">
        <ele>1131.6088867188</ele>
        <time>2020-08-16T12:09:50Z</time>
      </trkpt>
      <trkpt lat="44.82187" lon="6.20084">
        <ele>1131.6088867188</ele>
        <time>2020-08-16T12:09:55Z</time>
      </trkpt>
      <trkpt lat="44.82161" lon="6.20083">
        <ele>1131.6088867188</ele>
        <time>2020-08-16T12:10:11Z</time>
      </trkpt>
      <trkpt lat="44.8215" lon="6.20085">
        <ele>1131.6088867188</ele>
        <time>2020-08-16T12:10:20Z</time>
      </trkpt>
      <trkpt lat="44.82126" lon="6.2008">
        <ele>1132.5705566406</ele>
        <time>2020-08-16T12:10:41Z</time>
      </trkpt>
      <trkpt lat="44.82099" lon="6.20076">
        <ele>1132.5705566406</ele>
        <time>2020-08-16T12:10:58Z</time>
      </trkpt>
      <trkpt lat="44.82085" lon="6.20058">
        <ele>1133.5317382812</ele>
        <time>2020-08-16T12:11:20Z</time>
      </trkpt>
      <trkpt lat="44.82071" lon="6.20046">
        <ele>1133.5317382812</ele>
        <time>2020-08-16T12:11:36Z</time>
      </trkpt>
      <trkpt lat="44.82059" lon="6.20045">
        <ele>1133.0510253906</ele>
        <time>2020-08-16T12:11:48Z</time>
      </trkpt>
      <trkpt lat="44.8204" lon="6.20041">
        <ele>1134.0124511719</ele>
        <time>2020-08-16T12:12:05Z</time>
      </trkpt>
      <trkpt lat="44.82034" lon="6.20028">
        <ele>1133.0510253906</ele>
        <time>2020-08-16T12:12:20Z</time>
      </trkpt>
      <trkpt lat="44.82033" lon="6.2002">
        <ele>1133.0510253906</ele>
        <time>2020-08-16T12:12:25Z</time>
      </trkpt>
      <trkpt lat="44.82023" lon="6.20005">
        <ele>1132.5705566406</ele>
        <time>2020-08-16T12:12:37Z</time>
      </trkpt>
      <trkpt lat="44.82019" lon="6.19983">
        <ele>1132.08984375</ele>
        <time>2020-08-16T12:12:54Z</time>
      </trkpt>
      <trkpt lat="44.82018" lon="6.19958">
        <ele>1131.6088867188</ele>
        <time>2020-08-16T12:13:09Z</time>
      </trkpt>
      <trkpt lat="44.82013" lon="6.19935">
        <ele>1133.5317382812</ele>
        <time>2020-08-16T12:13:23Z</time>
      </trkpt>
      <trkpt lat="44.82013" lon="6.19903">
        <ele>1132.5705566406</ele>
        <time>2020-08-16T12:13:44Z</time>
      </trkpt>
      <trkpt lat="44.82011" lon="6.19874">
        <ele>1131.1284179688</ele>
        <time>2020-08-16T12:14:04Z</time>
      </trkpt>
      <trkpt lat="44.81998" lon="6.19851">
        <ele>1128.2443847656</ele>
        <time>2020-08-16T12:14:21Z</time>
      </trkpt>
      <trkpt lat="44.81995" lon="6.19818">
        <ele>1129.6862792969</ele>
        <time>2020-08-16T12:14:42Z</time>
      </trkpt>
      <trkpt lat="44.82018" lon="6.19758">
        <ele>1119.5927734375</ele>
        <time>2020-08-16T12:15:06Z</time>
      </trkpt>
      <trkpt lat="44.82021" lon="6.19752">
        <ele>1118.6313476562</ele>
        <time>2020-08-16T12:15:08Z</time>
      </trkpt>
      <trkpt lat="44.82026" lon="6.19718">
        <ele>1118.1506347656</ele>
        <time>2020-08-16T12:15:26Z</time>
      </trkpt>
      <trkpt lat="44.82017" lon="6.19706">
        <ele>1112.86328125</ele>
        <time>2020-08-16T12:15:40Z</time>
      </trkpt>
      <trkpt lat="44.82019" lon="6.19679">
        <ele>1107.0954589844</ele>
        <time>2020-08-16T12:15:55Z</time>
      </trkpt>
      <trkpt lat="44.82019" lon="6.19671">
        <ele>1106.6147460938</ele>
        <time>2020-08-16T12:15:59Z</time>
      </trkpt>
      <trkpt lat="44.82022" lon="6.19666">
        <ele>1106.6147460938</ele>
        <time>2020-08-16T12:16:02Z</time>
      </trkpt>
      <trkpt lat="44.82022" lon="6.19659">
        <ele>1105.6535644531</ele>
        <time>2020-08-16T12:16:06Z</time>
      </trkpt>
      <trkpt lat="44.82016" lon="6.1965">
        <ele>1104.2116699219</ele>
        <time>2020-08-16T12:16:10Z</time>
      </trkpt>
      <trkpt lat="44.82011" lon="6.19648">
        <ele>1103.2502441406</ele>
        <time>2020-08-16T12:16:12Z</time>
      </trkpt>
      <trkpt lat="44.82008" lon="6.19644">
        <ele>1102.76953125</ele>
        <time>2020-08-16T12:16:15Z</time>
      </trkpt>
      <trkpt lat="44.81999" lon="6.19628">
        <ele>1099.8854980469</ele>
        <time>2020-08-16T12:16:29Z</time>
      </trkpt>
      <trkpt lat="44.81999" lon="6.19621">
        <ele>1096.5209960938</ele>
        <time>2020-08-16T12:16:41Z</time>
      </trkpt>
      <trkpt lat="44.82001" lon="6.19616">
        <ele>1094.5981445312</ele>
        <time>2020-08-16T12:16:54Z</time>
      </trkpt>
      <trkpt lat="44.82" lon="6.19618">
        <ele>1095.0788574219</ele>
        <time>2020-08-16T12:18:35Z</time>
      </trkpt>
      <trkpt lat="44.81999" lon="6.19618">
        <ele>1096.0402832031</ele>
        <time>2020-08-16T12:19:04Z</time>
      </trkpt>
      <trkpt lat="44.82004" lon="6.19609">
        <ele>1097.4821777344</ele>
        <time>2020-08-16T12:19:11Z</time>
      </trkpt>
      <trkpt lat="44.82008" lon="6.19567">
        <ele>1096.0402832031</ele>
        <time>2020-08-16T12:19:33Z</time>
      </trkpt>
      <trkpt lat="44.82011" lon="6.1953">
        <ele>1096.0402832031</ele>
        <time>2020-08-16T12:19:53Z</time>
      </trkpt>
      <trkpt lat="44.8201" lon="6.19515">
        <ele>1095.5595703125</ele>
        <time>2020-08-16T12:20:04Z</time>
      </trkpt>
      <trkpt lat="44.82009" lon="6.19508">
        <ele>1096.0402832031</ele>
        <time>2020-08-16T12:20:09Z</time>
      </trkpt>
      <trkpt lat="44.82009" lon="6.19496">
        <ele>1096.0402832031</ele>
        <time>2020-08-16T12:20:16Z</time>
      </trkpt>
      <trkpt lat="44.82014" lon="6.19466">
        <ele>1097.0014648438</ele>
        <time>2020-08-16T12:20:34Z</time>
      </trkpt>
      <trkpt lat="44.82015" lon="6.1946">
        <ele>1097.962890625</ele>
        <time>2020-08-16T12:20:39Z</time>
      </trkpt>
      <trkpt lat="44.82019" lon="6.19455">
        <ele>1098.443359375</ele>
        <time>2020-08-16T12:20:45Z</time>
      </trkpt>
      <trkpt lat="44.82021" lon="6.19422">
        <ele>1098.443359375</ele>
        <time>2020-08-16T12:20:59Z</time>
      </trkpt>
      <trkpt lat="44.82011" lon="6.19382">
        <ele>1095.5595703125</ele>
        <time>2020-08-16T12:21:15Z</time>
      </trkpt>
      <trkpt lat="44.82011" lon="6.1938">
        <ele>1095.5595703125</ele>
        <time>2020-08-16T12:21:17Z</time>
      </trkpt>
      <trkpt lat="44.82012" lon="6.19376">
        <ele>1095.5595703125</ele>
        <time>2020-08-16T12:21:20Z</time>
      </trkpt>
      <trkpt lat="44.8201" lon="6.19366">
        <ele>1095.0788574219</ele>
        <time>2020-08-16T12:21:24Z</time>
      </trkpt>
      <trkpt lat="44.82011" lon="6.19356">
        <ele>1093.6369628906</ele>
        <time>2020-08-16T12:21:33Z</time>
      </trkpt>
      <trkpt lat="44.82014" lon="6.19343">
        <ele>1092.67578125</ele>
        <time>2020-08-16T12:21:41Z</time>
      </trkpt>
      <trkpt lat="44.82013" lon="6.19326">
        <ele>1091.7143554688</ele>
        <time>2020-08-16T12:21:49Z</time>
      </trkpt>
      <trkpt lat="44.81998" lon="6.19297">
        <ele>1090.7529296875</ele>
        <time>2020-08-16T12:22:05Z</time>
      </trkpt>
      <trkpt lat="44.81997" lon="6.19293">
        <ele>1090.7529296875</ele>
        <time>2020-08-16T12:22:08Z</time>
      </trkpt>
      <trkpt lat="44.81993" lon="6.19281">
        <ele>1090.2724609375</ele>
        <time>2020-08-16T12:22:15Z</time>
      </trkpt>
      <trkpt lat="44.81988" lon="6.19273">
        <ele>1089.7917480469</ele>
        <time>2020-08-16T12:22:19Z</time>
      </trkpt>
      <trkpt lat="44.81987" lon="6.19259">
        <ele>1089.7917480469</ele>
        <time>2020-08-16T12:22:28Z</time>
      </trkpt>
      <trkpt lat="44.81977" lon="6.19233">
        <ele>1089.3110351562</ele>
        <time>2020-08-16T12:22:43Z</time>
      </trkpt>
      <trkpt lat="44.81976" lon="6.19209">
        <ele>1090.2724609375</ele>
        <time>2020-08-16T12:22:51Z</time>
      </trkpt>
      <trkpt lat="44.81977" lon="6.192">
        <ele>1090.7529296875</ele>
        <time>2020-08-16T12:22:57Z</time>
      </trkpt>
      <trkpt lat="44.81972" lon="6.19186">
        <ele>1090.7529296875</ele>
        <time>2020-08-16T12:23:03Z</time>
      </trkpt>
      <trkpt lat="44.81966" lon="6.19166">
        <ele>1088.8305664062</ele>
        <time>2020-08-16T12:23:15Z</time>
      </trkpt>
      <trkpt lat="44.81967" lon="6.19162">
        <ele>1088.3498535156</ele>
        <time>2020-08-16T12:23:18Z</time>
      </trkpt>
      <trkpt lat="44.81969" lon="6.1915">
        <ele>1087.3884277344</ele>
        <time>2020-08-16T12:23:25Z</time>
      </trkpt>
      <trkpt lat="44.81969" lon="6.19125">
        <ele>1085.4658203125</ele>
        <time>2020-08-16T12:23:44Z</time>
      </trkpt>
      <trkpt lat="44.81964" lon="6.19101">
        <ele>1084.9853515625</ele>
        <time>2020-08-16T12:24:03Z</time>
      </trkpt>
      <trkpt lat="44.81969" lon="6.19071">
        <ele>1084.0239257812</ele>
        <time>2020-08-16T12:24:20Z</time>
      </trkpt>
      <trkpt lat="44.81975" lon="6.19051">
        <ele>1083.0622558594</ele>
        <time>2020-08-16T12:24:39Z</time>
      </trkpt>
      <trkpt lat="44.81968" lon="6.1902">
        <ele>1082.5817871094</ele>
        <time>2020-08-16T12:24:57Z</time>
      </trkpt>
      <trkpt lat="44.81962" lon="6.18999">
        <ele>1082.1010742188</ele>
        <time>2020-08-16T12:25:11Z</time>
      </trkpt>
      <trkpt lat="44.81966" lon="6.18969">
        <ele>1082.5817871094</ele>
        <time>2020-08-16T12:25:24Z</time>
      </trkpt>
      <trkpt lat="44.81963" lon="6.18942">
        <ele>1082.1010742188</ele>
        <time>2020-08-16T12:25:36Z</time>
      </trkpt>
      <trkpt lat="44.81963" lon="6.18931">
        <ele>1083.0622558594</ele>
        <time>2020-08-16T12:25:45Z</time>
      </trkpt>
      <trkpt lat="44.81964" lon="6.18893">
        <ele>1084.5046386719</ele>
        <time>2020-08-16T12:26:07Z</time>
      </trkpt>
      <trkpt lat="44.81959" lon="6.18852">
        <ele>1084.9853515625</ele>
        <time>2020-08-16T12:26:26Z</time>
      </trkpt>
      <trkpt lat="44.81962" lon="6.18844">
        <ele>1086.4272460938</ele>
        <time>2020-08-16T12:26:31Z</time>
      </trkpt>
      <trkpt lat="44.81961" lon="6.18825">
        <ele>1086.4272460938</ele>
        <time>2020-08-16T12:26:41Z</time>
      </trkpt>
      <trkpt lat="44.81963" lon="6.18823">
        <ele>1087.3884277344</ele>
        <time>2020-08-16T12:26:45Z</time>
      </trkpt>
      <trkpt lat="44.81962" lon="6.18792">
        <ele>1089.7917480469</ele>
        <time>2020-08-16T12:27:03Z</time>
      </trkpt>
      <trkpt lat="44.81961" lon="6.18773">
        <ele>1090.7529296875</ele>
        <time>2020-08-16T12:27:14Z</time>
      </trkpt>
      <trkpt lat="44.81964" lon="6.18758">
        <ele>1091.2336425781</ele>
        <time>2020-08-16T12:27:22Z</time>
      </trkpt>
      <trkpt lat="44.81963" lon="6.1875">
        <ele>1091.2336425781</ele>
        <time>2020-08-16T12:27:26Z</time>
      </trkpt>
      <trkpt lat="44.81964" lon="6.18747">
        <ele>1091.2336425781</ele>
        <time>2020-08-16T12:27:28Z</time>
      </trkpt>
      <trkpt lat="44.81966" lon="6.18731">
        <ele>1089.3110351562</ele>
        <time>2020-08-16T12:27:36Z</time>
      </trkpt>
      <trkpt lat="44.81959" lon="6.18714">
        <ele>1085.9465332031</ele>
        <time>2020-08-16T12:27:41Z</time>
      </trkpt>
      <trkpt lat="44.81958" lon="6.18704">
        <ele>1085.4658203125</ele>
        <time>2020-08-16T12:27:45Z</time>
      </trkpt>
      <trkpt lat="44.81952" lon="6.18678">
        <ele>1088.3498535156</ele>
        <time>2020-08-16T12:27:58Z</time>
      </trkpt>
      <trkpt lat="44.8195" lon="6.18674">
        <ele>1088.8305664062</ele>
        <time>2020-08-16T12:28:00Z</time>
      </trkpt>
      <trkpt lat="44.81949" lon="6.18665">
        <ele>1091.2336425781</ele>
        <time>2020-08-16T12:28:06Z</time>
      </trkpt>
      <trkpt lat="44.8195" lon="6.18656">
        <ele>1092.67578125</ele>
        <time>2020-08-16T12:28:12Z</time>
      </trkpt>
      <trkpt lat="44.81947" lon="6.1865">
        <ele>1093.6369628906</ele>
        <time>2020-08-16T12:28:16Z</time>
      </trkpt>
      <trkpt lat="44.8194" lon="6.18637">
        <ele>1095.0788574219</ele>
        <time>2020-08-16T12:28:27Z</time>
      </trkpt>
      <trkpt lat="44.81943" lon="6.18633">
        <ele>1096.0402832031</ele>
        <time>2020-08-16T12:28:30Z</time>
      </trkpt>
      <trkpt lat="44.81939" lon="6.18623">
        <ele>1097.0014648438</ele>
        <time>2020-08-16T12:28:36Z</time>
      </trkpt>
      <trkpt lat="44.81937" lon="6.18615">
        <ele>1099.4047851562</ele>
        <time>2020-08-16T12:28:40Z</time>
      </trkpt>
      <trkpt lat="44.81935" lon="6.18589">
        <ele>1102.76953125</ele>
        <time>2020-08-16T12:28:55Z</time>
      </trkpt>
      <trkpt lat="44.81935" lon="6.18566">
        <ele>1105.1728515625</ele>
        <time>2020-08-16T12:29:09Z</time>
      </trkpt>
      <trkpt lat="44.81937" lon="6.18549">
        <ele>1106.1340332031</ele>
        <time>2020-08-16T12:29:17Z</time>
      </trkpt>
      <trkpt lat="44.81938" lon="6.18541">
        <ele>1107.0954589844</ele>
        <time>2020-08-16T12:29:21Z</time>
      </trkpt>
      <trkpt lat="44.81939" lon="6.1853">
        <ele>1108.5373535156</ele>
        <time>2020-08-16T12:29:26Z</time>
      </trkpt>
      <trkpt lat="44.81942" lon="6.18518">
        <ele>1110.4599609375</ele>
        <time>2020-08-16T12:29:31Z</time>
      </trkpt>
      <trkpt lat="44.81941" lon="6.1851">
        <ele>1110.9406738281</ele>
        <time>2020-08-16T12:29:35Z</time>
      </trkpt>
      <trkpt lat="44.81939" lon="6.18498">
        <ele>1112.86328125</ele>
        <time>2020-08-16T12:29:41Z</time>
      </trkpt>
      <trkpt lat="44.81933" lon="6.18491">
        <ele>1114.3051757812</ele>
        <time>2020-08-16T12:29:50Z</time>
      </trkpt>
      <trkpt lat="44.81933" lon="6.18478">
        <ele>1116.7087402344</ele>
        <time>2020-08-16T12:30:01Z</time>
      </trkpt>
      <trkpt lat="44.81938" lon="6.18456">
        <ele>1119.5927734375</ele>
        <time>2020-08-16T12:30:13Z</time>
      </trkpt>
      <trkpt lat="44.81938" lon="6.18447">
        <ele>1120.5539550781</ele>
        <time>2020-08-16T12:30:17Z</time>
      </trkpt>
      <trkpt lat="44.81942" lon="6.18439">
        <ele>1121.5151367188</ele>
        <time>2020-08-16T12:30:21Z</time>
      </trkpt>
      <trkpt lat="44.81948" lon="6.18427">
        <ele>1121.0346679688</ele>
        <time>2020-08-16T12:30:27Z</time>
      </trkpt>
      <trkpt lat="44.81956" lon="6.18409">
        <ele>1121.5151367188</ele>
        <time>2020-08-16T12:30:37Z</time>
      </trkpt>
      <trkpt lat="44.81964" lon="6.18382">
        <ele>1111.9020996094</ele>
        <time>2020-08-16T12:30:50Z</time>
      </trkpt>
      <trkpt lat="44.81972" lon="6.18343">
        <ele>1100.8469238281</ele>
        <time>2020-08-16T12:31:08Z</time>
      </trkpt>
      <trkpt lat="44.81979" lon="6.18333">
        <ele>1099.4047851562</ele>
        <time>2020-08-16T12:31:17Z</time>
      </trkpt>
      <trkpt lat="44.81978" lon="6.18328">
        <ele>1098.9240722656</ele>
        <time>2020-08-16T12:31:20Z</time>
      </trkpt>
      <trkpt lat="44.81991" lon="6.18299">
        <ele>1097.962890625</ele>
        <time>2020-08-16T12:31:38Z</time>
      </trkpt>
      <trkpt lat="44.8199" lon="6.18293">
        <ele>1097.962890625</ele>
        <time>2020-08-16T12:31:43Z</time>
      </trkpt>
      <trkpt lat="44.81985" lon="6.1828">
        <ele>1097.4821777344</ele>
        <time>2020-08-16T12:31:48Z</time>
      </trkpt>
      <trkpt lat="44.81983" lon="6.18269">
        <ele>1096.5209960938</ele>
        <time>2020-08-16T12:31:52Z</time>
      </trkpt>
      <trkpt lat="44.81986" lon="6.1826">
        <ele>1095.5595703125</ele>
        <time>2020-08-16T12:31:56Z</time>
      </trkpt>
      <trkpt lat="44.81985" lon="6.18256">
        <ele>1094.5981445312</ele>
        <time>2020-08-16T12:31:58Z</time>
      </trkpt>
      <trkpt lat="44.81984" lon="6.1825">
        <ele>1094.5981445312</ele>
        <time>2020-08-16T12:32:00Z</time>
      </trkpt>
      <trkpt lat="44.81985" lon="6.18241">
        <ele>1094.1176757812</ele>
        <time>2020-08-16T12:32:04Z</time>
      </trkpt>
      <trkpt lat="44.81984" lon="6.18232">
        <ele>1093.15625</ele>
        <time>2020-08-16T12:32:08Z</time>
      </trkpt>
      <trkpt lat="44.81988" lon="6.18227">
        <ele>1093.15625</ele>
        <time>2020-08-16T12:32:11Z</time>
      </trkpt>
      <trkpt lat="44.81991" lon="6.18223">
        <ele>1092.67578125</ele>
        <time>2020-08-16T12:32:14Z</time>
      </trkpt>
      <trkpt lat="44.8199" lon="6.18207">
        <ele>1091.7143554688</ele>
        <time>2020-08-16T12:32:25Z</time>
      </trkpt>
      <trkpt lat="44.81995" lon="6.18176">
        <ele>1090.7529296875</ele>
        <time>2020-08-16T12:32:42Z</time>
      </trkpt>
      <trkpt lat="44.81989" lon="6.18148">
        <ele>1089.7917480469</ele>
        <time>2020-08-16T12:32:57Z</time>
      </trkpt>
      <trkpt lat="44.81992" lon="6.18131">
        <ele>1088.8305664062</ele>
        <time>2020-08-16T12:33:06Z</time>
      </trkpt>
      <trkpt lat="44.81992" lon="6.18123">
        <ele>1088.3498535156</ele>
        <time>2020-08-16T12:33:10Z</time>
      </trkpt>
      <trkpt lat="44.81998" lon="6.18109">
        <ele>1088.8305664062</ele>
        <time>2020-08-16T12:33:22Z</time>
      </trkpt>
      <trkpt lat="44.82003" lon="6.18069">
        <ele>1089.7917480469</ele>
        <time>2020-08-16T12:33:42Z</time>
      </trkpt>
      <trkpt lat="44.82003" lon="6.18066">
        <ele>1089.7917480469</ele>
        <time>2020-08-16T12:33:44Z</time>
      </trkpt>
      <trkpt lat="44.82014" lon="6.18043">
        <ele>1090.7529296875</ele>
        <time>2020-08-16T12:34:00Z</time>
      </trkpt>
      <trkpt lat="44.82026" lon="6.18023">
        <ele>1090.7529296875</ele>
        <time>2020-08-16T12:34:10Z</time>
      </trkpt>
      <trkpt lat="44.82026" lon="6.18019">
        <ele>1091.2336425781</ele>
        <time>2020-08-16T12:34:12Z</time>
      </trkpt>
      <trkpt lat="44.82029" lon="6.18009">
        <ele>1091.2336425781</ele>
        <time>2020-08-16T12:34:17Z</time>
      </trkpt>
      <trkpt lat="44.82028" lon="6.18004">
        <ele>1090.7529296875</ele>
        <time>2020-08-16T12:34:19Z</time>
      </trkpt>
      <trkpt lat="44.82031" lon="6.17987">
        <ele>1090.2724609375</ele>
        <time>2020-08-16T12:34:32Z</time>
      </trkpt>
      <trkpt lat="44.82046" lon="6.17969">
        <ele>1089.7917480469</ele>
        <time>2020-08-16T12:34:43Z</time>
      </trkpt>
      <trkpt lat="44.82049" lon="6.17956">
        <ele>1089.7917480469</ele>
        <time>2020-08-16T12:34:50Z</time>
      </trkpt>
      <trkpt lat="44.82041" lon="6.17933">
        <ele>1089.3110351562</ele>
        <time>2020-08-16T12:35:01Z</time>
      </trkpt>
      <trkpt lat="44.82042" lon="6.17929">
        <ele>1088.8305664062</ele>
        <time>2020-08-16T12:35:03Z</time>
      </trkpt>
      <trkpt lat="44.82037" lon="6.17918">
        <ele>1087.869140625</ele>
        <time>2020-08-16T12:35:08Z</time>
      </trkpt>
      <trkpt lat="44.82042" lon="6.17906">
        <ele>1086.9077148438</ele>
        <time>2020-08-16T12:35:14Z</time>
      </trkpt>
      <trkpt lat="44.82041" lon="6.17897">
        <ele>1086.4272460938</ele>
        <time>2020-08-16T12:35:18Z</time>
      </trkpt>
      <trkpt lat="44.8204" lon="6.17891">
        <ele>1085.4658203125</ele>
        <time>2020-08-16T12:35:23Z</time>
      </trkpt>
      <trkpt lat="44.82042" lon="6.17871">
        <ele>1083.54296875</ele>
        <time>2020-08-16T12:35:34Z</time>
      </trkpt>
      <trkpt lat="44.82042" lon="6.17869">
        <ele>1083.54296875</ele>
        <time>2020-08-16T12:35:35Z</time>
      </trkpt>
      <trkpt lat="44.82038" lon="6.17851">
        <ele>1082.1010742188</ele>
        <time>2020-08-16T12:35:43Z</time>
      </trkpt>
      <trkpt lat="44.8203" lon="6.17833">
        <ele>1079.2170410156</ele>
        <time>2020-08-16T12:35:55Z</time>
      </trkpt>
      <trkpt lat="44.82037" lon="6.17818">
        <ele>1080.6591796875</ele>
        <time>2020-08-16T12:36:13Z</time>
      </trkpt>
      <trkpt lat="44.82044" lon="6.17802">
        <ele>1080.6591796875</ele>
        <time>2020-08-16T12:36:24Z</time>
      </trkpt>
      <trkpt lat="44.82049" lon="6.17787">
        <ele>1080.6591796875</ele>
        <time>2020-08-16T12:36:34Z</time>
      </trkpt>
      <trkpt lat="44.82052" lon="6.17778">
        <ele>1080.1784667969</ele>
        <time>2020-08-16T12:36:39Z</time>
      </trkpt>
      <trkpt lat="44.82058" lon="6.17757">
        <ele>1080.6591796875</ele>
        <time>2020-08-16T12:36:49Z</time>
      </trkpt>
      <trkpt lat="44.82058" lon="6.17753">
        <ele>1080.6591796875</ele>
        <time>2020-08-16T12:36:51Z</time>
      </trkpt>
      <trkpt lat="44.82054" lon="6.17749">
        <ele>1080.1784667969</ele>
        <time>2020-08-16T12:36:54Z</time>
      </trkpt>
      <trkpt lat="44.82055" lon="6.17741">
        <ele>1080.1784667969</ele>
        <time>2020-08-16T12:36:58Z</time>
      </trkpt>
      <trkpt lat="44.82061" lon="6.17728">
        <ele>1071.0461425781</ele>
        <time>2020-08-16T12:37:02Z</time>
      </trkpt>
      <trkpt lat="44.82067" lon="6.17706">
        <ele>1066.2392578125</ele>
        <time>2020-08-16T12:37:10Z</time>
      </trkpt>
      <trkpt lat="44.82069" lon="6.17703">
        <ele>1064.7973632812</ele>
        <time>2020-08-16T12:37:12Z</time>
      </trkpt>
      <trkpt lat="44.82068" lon="6.1769">
        <ele>1062.8747558594</ele>
        <time>2020-08-16T12:37:18Z</time>
      </trkpt>
      <trkpt lat="44.82071" lon="6.17682">
        <ele>1063.8359375</ele>
        <time>2020-08-16T12:37:23Z</time>
      </trkpt>
      <trkpt lat="44.82073" lon="6.17675">
        <ele>1063.35546875</ele>
        <time>2020-08-16T12:37:28Z</time>
      </trkpt>
      <trkpt lat="44.82074" lon="6.17664">
        <ele>1064.7973632812</ele>
        <time>2020-08-16T12:37:33Z</time>
      </trkpt>
      <trkpt lat="44.82074" lon="6.17661">
        <ele>1065.7587890625</ele>
        <time>2020-08-16T12:37:35Z</time>
      </trkpt>
      <trkpt lat="44.82073" lon="6.1765">
        <ele>1070.0847167969</ele>
        <time>2020-08-16T12:37:46Z</time>
      </trkpt>
      <trkpt lat="44.82072" lon="6.17633">
        <ele>1067.2006835938</ele>
        <time>2020-08-16T12:38:01Z</time>
      </trkpt>
      <trkpt lat="44.82069" lon="6.17626">
        <ele>1067.6811523438</ele>
        <time>2020-08-16T12:38:10Z</time>
      </trkpt>
      <trkpt lat="44.82079" lon="6.17599">
        <ele>1069.1235351562</ele>
        <time>2020-08-16T12:38:29Z</time>
      </trkpt>
      <trkpt lat="44.82078" lon="6.17587">
        <ele>1064.7973632812</ele>
        <time>2020-08-16T12:38:42Z</time>
      </trkpt>
      <trkpt lat="44.82073" lon="6.17565">
        <ele>1062.3940429688</ele>
        <time>2020-08-16T12:38:52Z</time>
      </trkpt>
      <trkpt lat="44.82071" lon="6.17545">
        <ele>1062.8747558594</ele>
        <time>2020-08-16T12:39:05Z</time>
      </trkpt>
      <trkpt lat="44.82072" lon="6.17527">
        <ele>1059.5102539062</ele>
        <time>2020-08-16T12:39:17Z</time>
      </trkpt>
      <trkpt lat="44.82081" lon="6.17515">
        <ele>1056.6262207031</ele>
        <time>2020-08-16T12:39:25Z</time>
      </trkpt>
      <trkpt lat="44.82082" lon="6.17489">
        <ele>1052.7810058594</ele>
        <time>2020-08-16T12:39:40Z</time>
      </trkpt>
      <trkpt lat="44.82088" lon="6.17479">
        <ele>1051.3388671875</ele>
        <time>2020-08-16T12:39:47Z</time>
      </trkpt>
      <trkpt lat="44.82085" lon="6.17457">
        <ele>1047.9743652344</ele>
        <time>2020-08-16T12:40:03Z</time>
      </trkpt>
      <trkpt lat="44.82076" lon="6.17434">
        <ele>1046.5324707031</ele>
        <time>2020-08-16T12:40:13Z</time>
      </trkpt>
      <trkpt lat="44.82076" lon="6.17428">
        <ele>1045.5710449219</ele>
        <time>2020-08-16T12:40:19Z</time>
      </trkpt>
      <trkpt lat="44.82078" lon="6.17414">
        <ele>1043.6484375</ele>
        <time>2020-08-16T12:40:30Z</time>
      </trkpt>
      <trkpt lat="44.8208" lon="6.17398">
        <ele>1041.2451171875</ele>
        <time>2020-08-16T12:40:40Z</time>
      </trkpt>
      <trkpt lat="44.82088" lon="6.17386">
        <ele>1039.8032226562</ele>
        <time>2020-08-16T12:40:54Z</time>
      </trkpt>
      <trkpt lat="44.82097" lon="6.17367">
        <ele>1041.2451171875</ele>
        <time>2020-08-16T12:41:38Z</time>
      </trkpt>
      <trkpt lat="44.82106" lon="6.17345">
        <ele>1040.7644042969</ele>
        <time>2020-08-16T12:41:49Z</time>
      </trkpt>
      <trkpt lat="44.82112" lon="6.17327">
        <ele>1041.7258300781</ele>
        <time>2020-08-16T12:42:01Z</time>
      </trkpt>
      <trkpt lat="44.82113" lon="6.17323">
        <ele>1042.6872558594</ele>
        <time>2020-08-16T12:42:04Z</time>
      </trkpt>
      <trkpt lat="44.82113" lon="6.17313">
        <ele>1044.6096191406</ele>
        <time>2020-08-16T12:42:11Z</time>
      </trkpt>
      <trkpt lat="44.82103" lon="6.17294">
        <ele>1046.5324707031</ele>
        <time>2020-08-16T12:42:27Z</time>
      </trkpt>
      <trkpt lat="44.82099" lon="6.17287">
        <ele>1047.0129394531</ele>
        <time>2020-08-16T12:42:31Z</time>
      </trkpt>
      <trkpt lat="44.82105" lon="6.17277">
        <ele>1048.4548339844</ele>
        <time>2020-08-16T12:42:38Z</time>
      </trkpt>
      <trkpt lat="44.82107" lon="6.17268">
        <ele>1049.4162597656</ele>
        <time>2020-08-16T12:42:43Z</time>
      </trkpt>
      <trkpt lat="44.82106" lon="6.17255">
        <ele>1050.8581542969</ele>
        <time>2020-08-16T12:42:52Z</time>
      </trkpt>
      <trkpt lat="44.82107" lon="6.17244">
        <ele>1050.8581542969</ele>
        <time>2020-08-16T12:42:57Z</time>
      </trkpt>
      <trkpt lat="44.82107" lon="6.1724">
        <ele>1050.8581542969</ele>
        <time>2020-08-16T12:42:59Z</time>
      </trkpt>
      <trkpt lat="44.82109" lon="6.17217">
        <ele>1053.7424316406</ele>
        <time>2020-08-16T12:43:12Z</time>
      </trkpt>
      <trkpt lat="44.8211" lon="6.17209">
        <ele>1053.26171875</ele>
        <time>2020-08-16T12:43:16Z</time>
      </trkpt>
      <trkpt lat="44.82109" lon="6.17194">
        <ele>1052.7810058594</ele>
        <time>2020-08-16T12:43:22Z</time>
      </trkpt>
      <trkpt lat="44.82107" lon="6.17186">
        <ele>1051.3388671875</ele>
        <time>2020-08-16T12:43:25Z</time>
      </trkpt>
      <trkpt lat="44.82109" lon="6.17181">
        <ele>1051.3388671875</ele>
        <time>2020-08-16T12:43:29Z</time>
      </trkpt>
      <trkpt lat="44.82108" lon="6.17174">
        <ele>1052.7810058594</ele>
        <time>2020-08-16T12:43:33Z</time>
      </trkpt>
      <trkpt lat="44.82107" lon="6.17169">
        <ele>1053.26171875</ele>
        <time>2020-08-16T12:43:36Z</time>
      </trkpt>
      <trkpt lat="44.82108" lon="6.17163">
        <ele>1054.2231445312</ele>
        <time>2020-08-16T12:43:39Z</time>
      </trkpt>
      <trkpt lat="44.8211" lon="6.17149">
        <ele>1053.26171875</ele>
        <time>2020-08-16T12:43:45Z</time>
      </trkpt>
      <trkpt lat="44.82114" lon="6.17141">
        <ele>1053.7424316406</ele>
        <time>2020-08-16T12:43:50Z</time>
      </trkpt>
      <trkpt lat="44.8212" lon="6.17117">
        <ele>1052.3002929688</ele>
        <time>2020-08-16T12:44:05Z</time>
      </trkpt>
      <trkpt lat="44.82125" lon="6.17107">
        <ele>1051.8195800781</ele>
        <time>2020-08-16T12:44:10Z</time>
      </trkpt>
      <trkpt lat="44.82136" lon="6.17096">
        <ele>1050.8581542969</ele>
        <time>2020-08-16T12:44:16Z</time>
      </trkpt>
      <trkpt lat="44.82139" lon="6.17081">
        <ele>1051.3388671875</ele>
        <time>2020-08-16T12:44:27Z</time>
      </trkpt>
      <trkpt lat="44.82143" lon="6.17063">
        <ele>1052.7810058594</ele>
        <time>2020-08-16T12:44:37Z</time>
      </trkpt>
      <trkpt lat="44.8215" lon="6.1705">
        <ele>1052.3002929688</ele>
        <time>2020-08-16T12:44:47Z</time>
      </trkpt>
      <trkpt lat="44.82151" lon="6.17046">
        <ele>1051.3388671875</ele>
        <time>2020-08-16T12:44:53Z</time>
      </trkpt>
      <trkpt lat="44.82161" lon="6.17025">
        <ele>1052.3002929688</ele>
        <time>2020-08-16T12:45:05Z</time>
      </trkpt>
      <trkpt lat="44.82168" lon="6.17012">
        <ele>1053.7424316406</ele>
        <time>2020-08-16T12:45:15Z</time>
      </trkpt>
      <trkpt lat="44.82171" lon="6.1701">
        <ele>1054.2231445312</ele>
        <time>2020-08-16T12:45:16Z</time>
      </trkpt>
      <trkpt lat="44.8218" lon="6.16989">
        <ele>1051.3388671875</ele>
        <time>2020-08-16T12:45:28Z</time>
      </trkpt>
      <trkpt lat="44.82185" lon="6.16974">
        <ele>1045.5710449219</ele>
        <time>2020-08-16T12:45:37Z</time>
      </trkpt>
      <trkpt lat="44.82192" lon="6.16964">
        <ele>1044.1291503906</ele>
        <time>2020-08-16T12:45:45Z</time>
      </trkpt>
      <trkpt lat="44.82195" lon="6.16955">
        <ele>1043.1677246094</ele>
        <time>2020-08-16T12:45:50Z</time>
      </trkpt>
      <trkpt lat="44.82205" lon="6.16935">
        <ele>1041.2451171875</ele>
        <time>2020-08-16T12:46:01Z</time>
      </trkpt>
      <trkpt lat="44.82206" lon="6.16929">
        <ele>1041.7258300781</ele>
        <time>2020-08-16T12:46:03Z</time>
      </trkpt>
      <trkpt lat="44.82206" lon="6.16925">
        <ele>1041.2451171875</ele>
        <time>2020-08-16T12:46:05Z</time>
      </trkpt>
      <trkpt lat="44.82211" lon="6.16913">
        <ele>1043.6484375</ele>
        <time>2020-08-16T12:46:11Z</time>
      </trkpt>
      <trkpt lat="44.82214" lon="6.1691">
        <ele>1045.5710449219</ele>
        <time>2020-08-16T12:46:13Z</time>
      </trkpt>
      <trkpt lat="44.82215" lon="6.16904">
        <ele>1047.4936523438</ele>
        <time>2020-08-16T12:46:16Z</time>
      </trkpt>
      <trkpt lat="44.82219" lon="6.16887">
        <ele>1048.4548339844</ele>
        <time>2020-08-16T12:46:26Z</time>
      </trkpt>
      <trkpt lat="44.82223" lon="6.16873">
        <ele>1047.9743652344</ele>
        <time>2020-08-16T12:46:38Z</time>
      </trkpt>
      <trkpt lat="44.82228" lon="6.16861">
        <ele>1049.4162597656</ele>
        <time>2020-08-16T12:46:46Z</time>
      </trkpt>
      <trkpt lat="44.82231" lon="6.16845">
        <ele>1048.4548339844</ele>
        <time>2020-08-16T12:46:54Z</time>
      </trkpt>
      <trkpt lat="44.82227" lon="6.16835">
        <ele>1049.4162597656</ele>
        <time>2020-08-16T12:46:58Z</time>
      </trkpt>
      <trkpt lat="44.82228" lon="6.16831">
        <ele>1050.3776855469</ele>
        <time>2020-08-16T12:47:00Z</time>
      </trkpt>
      <trkpt lat="44.82225" lon="6.16826">
        <ele>1050.3776855469</ele>
        <time>2020-08-16T12:47:02Z</time>
      </trkpt>
      <trkpt lat="44.82228" lon="6.16817">
        <ele>1052.3002929688</ele>
        <time>2020-08-16T12:47:06Z</time>
      </trkpt>
      <trkpt lat="44.82231" lon="6.16808">
        <ele>1054.2231445312</ele>
        <time>2020-08-16T12:47:10Z</time>
      </trkpt>
      <trkpt lat="44.82234" lon="6.16797">
        <ele>1052.7810058594</ele>
        <time>2020-08-16T12:47:15Z</time>
      </trkpt>
      <trkpt lat="44.82235" lon="6.16793">
        <ele>1054.7036132812</ele>
        <time>2020-08-16T12:47:17Z</time>
      </trkpt>
      <trkpt lat="44.82232" lon="6.16789">
        <ele>1051.8195800781</ele>
        <time>2020-08-16T12:47:20Z</time>
      </trkpt>
      <trkpt lat="44.82232" lon="6.16782">
        <ele>1052.3002929688</ele>
        <time>2020-08-16T12:47:25Z</time>
      </trkpt>
      <trkpt lat="44.82235" lon="6.16762">
        <ele>1049.8969726562</ele>
        <time>2020-08-16T12:47:35Z</time>
      </trkpt>
      <trkpt lat="44.8224" lon="6.16753">
        <ele>1048.4548339844</ele>
        <time>2020-08-16T12:47:39Z</time>
      </trkpt>
      <trkpt lat="44.82241" lon="6.1675">
        <ele>1047.9743652344</ele>
        <time>2020-08-16T12:47:41Z</time>
      </trkpt>
      <trkpt lat="44.82241" lon="6.16745">
        <ele>1047.9743652344</ele>
        <time>2020-08-16T12:47:44Z</time>
      </trkpt>
      <trkpt lat="44.82242" lon="6.16738">
        <ele>1047.4936523438</ele>
        <time>2020-08-16T12:47:49Z</time>
      </trkpt>
      <trkpt lat="44.82239" lon="6.16723">
        <ele>1046.5324707031</ele>
        <time>2020-08-16T12:47:55Z</time>
      </trkpt>
      <trkpt lat="44.82233" lon="6.16704">
        <ele>1045.0903320312</ele>
        <time>2020-08-16T12:48:07Z</time>
      </trkpt>
      <trkpt lat="44.82232" lon="6.16697">
        <ele>1044.6096191406</ele>
        <time>2020-08-16T12:48:10Z</time>
      </trkpt>
      <trkpt lat="44.82233" lon="6.16686">
        <ele>1045.5710449219</ele>
        <time>2020-08-16T12:48:15Z</time>
      </trkpt>
      <trkpt lat="44.82228" lon="6.16673">
        <ele>1044.1291503906</ele>
        <time>2020-08-16T12:48:24Z</time>
      </trkpt>
      <trkpt lat="44.82227" lon="6.16668">
        <ele>1044.1291503906</ele>
        <time>2020-08-16T12:48:28Z</time>
      </trkpt>
      <trkpt lat="44.82221" lon="6.16644">
        <ele>1044.1291503906</ele>
        <time>2020-08-16T12:48:41Z</time>
      </trkpt>
      <trkpt lat="44.82219" lon="6.16625">
        <ele>1044.6096191406</ele>
        <time>2020-08-16T12:48:51Z</time>
      </trkpt>
      <trkpt lat="44.8222" lon="6.16624">
        <ele>1044.6096191406</ele>
        <time>2020-08-16T12:48:52Z</time>
      </trkpt>
      <trkpt lat="44.82215" lon="6.16606">
        <ele>1044.6096191406</ele>
        <time>2020-08-16T12:49:03Z</time>
      </trkpt>
      <trkpt lat="44.82213" lon="6.166">
        <ele>1044.6096191406</ele>
        <time>2020-08-16T12:49:06Z</time>
      </trkpt>
      <trkpt lat="44.82211" lon="6.16594">
        <ele>1045.0903320312</ele>
        <time>2020-08-16T12:49:09Z</time>
      </trkpt>
      <trkpt lat="44.82201" lon="6.16563">
        <ele>1047.9743652344</ele>
        <time>2020-08-16T12:49:23Z</time>
      </trkpt>
      <trkpt lat="44.82198" lon="6.16527">
        <ele>1051.3388671875</ele>
        <time>2020-08-16T12:49:42Z</time>
      </trkpt>
      <trkpt lat="44.82195" lon="6.16504">
        <ele>1049.4162597656</ele>
        <time>2020-08-16T12:49:54Z</time>
      </trkpt>
      <trkpt lat="44.82191" lon="6.16497">
        <ele>1048.935546875</ele>
        <time>2020-08-16T12:49:58Z</time>
      </trkpt>
      <trkpt lat="44.82187" lon="6.16484">
        <ele>1047.9743652344</ele>
        <time>2020-08-16T12:50:03Z</time>
      </trkpt>
      <trkpt lat="44.82185" lon="6.16463">
        <ele>1046.5324707031</ele>
        <time>2020-08-16T12:50:13Z</time>
      </trkpt>
      <trkpt lat="44.82184" lon="6.1644">
        <ele>1045.0903320312</ele>
        <time>2020-08-16T12:50:27Z</time>
      </trkpt>
      <trkpt lat="44.82175" lon="6.16418">
        <ele>1045.0903320312</ele>
        <time>2020-08-16T12:50:40Z</time>
      </trkpt>
      <trkpt lat="44.8217" lon="6.16403">
        <ele>1045.0903320312</ele>
        <time>2020-08-16T12:50:49Z</time>
      </trkpt>
      <trkpt lat="44.82162" lon="6.16376">
        <ele>1046.0517578125</ele>
        <time>2020-08-16T12:51:03Z</time>
      </trkpt>
      <trkpt lat="44.82152" lon="6.16354">
        <ele>1047.4936523438</ele>
        <time>2020-08-16T12:51:15Z</time>
      </trkpt>
      <trkpt lat="44.82139" lon="6.16332">
        <ele>1048.4548339844</ele>
        <time>2020-08-16T12:51:28Z</time>
      </trkpt>
      <trkpt lat="44.82138" lon="6.16321">
        <ele>1048.935546875</ele>
        <time>2020-08-16T12:51:33Z</time>
      </trkpt>
      <trkpt lat="44.82138" lon="6.16308">
        <ele>1048.935546875</ele>
        <time>2020-08-16T12:51:38Z</time>
      </trkpt>
      <trkpt lat="44.82138" lon="6.16299">
        <ele>1048.4548339844</ele>
        <time>2020-08-16T12:51:42Z</time>
      </trkpt>
      <trkpt lat="44.82137" lon="6.16296">
        <ele>1048.4548339844</ele>
        <time>2020-08-16T12:51:44Z</time>
      </trkpt>
      <trkpt lat="44.82136" lon="6.16289">
        <ele>1048.4548339844</ele>
        <time>2020-08-16T12:51:48Z</time>
      </trkpt>
      <trkpt lat="44.82133" lon="6.1628">
        <ele>1048.4548339844</ele>
        <time>2020-08-16T12:51:52Z</time>
      </trkpt>
      <trkpt lat="44.82131" lon="6.16269">
        <ele>1047.9743652344</ele>
        <time>2020-08-16T12:51:56Z</time>
      </trkpt>
      <trkpt lat="44.82131" lon="6.1626">
        <ele>1047.9743652344</ele>
        <time>2020-08-16T12:52:00Z</time>
      </trkpt>
      <trkpt lat="44.8213" lon="6.16249">
        <ele>1046.5324707031</ele>
        <time>2020-08-16T12:52:09Z</time>
      </trkpt>
      <trkpt lat="44.82127" lon="6.16246">
        <ele>1047.0129394531</ele>
        <time>2020-08-16T12:52:12Z</time>
      </trkpt>
      <trkpt lat="44.82121" lon="6.16239">
        <ele>1046.5324707031</ele>
        <time>2020-08-16T12:52:16Z</time>
      </trkpt>
      <trkpt lat="44.82103" lon="6.16238">
        <ele>1046.5324707031</ele>
        <time>2020-08-16T12:52:26Z</time>
      </trkpt>
      <trkpt lat="44.82083" lon="6.16242">
        <ele>1048.4548339844</ele>
        <time>2020-08-16T12:52:36Z</time>
      </trkpt>
      <trkpt lat="44.82075" lon="6.16268">
        <ele>1043.6484375</ele>
        <time>2020-08-16T12:52:47Z</time>
      </trkpt>
      <trkpt lat="44.82068" lon="6.16288">
        <ele>1041.2451171875</ele>
        <time>2020-08-16T12:52:56Z</time>
      </trkpt>
      <trkpt lat="44.82068" lon="6.16301">
        <ele>1039.8032226562</ele>
        <time>2020-08-16T12:53:01Z</time>
      </trkpt>
      <trkpt lat="44.82072" lon="6.16318">
        <ele>1038.361328125</ele>
        <time>2020-08-16T12:53:08Z</time>
      </trkpt>
      <trkpt lat="44.82071" lon="6.16323">
        <ele>1035.9577636719</ele>
        <time>2020-08-16T12:53:11Z</time>
      </trkpt>
      <trkpt lat="44.8207" lon="6.16326">
        <ele>1035.4770507812</ele>
        <time>2020-08-16T12:53:13Z</time>
      </trkpt>
      <trkpt lat="44.82071" lon="6.16343">
        <ele>1033.0737304688</ele>
        <time>2020-08-16T12:53:24Z</time>
      </trkpt>
      <trkpt lat="44.82072" lon="6.16348">
        <ele>1033.5544433594</ele>
        <time>2020-08-16T12:53:26Z</time>
      </trkpt>
      <trkpt lat="44.82074" lon="6.1636">
        <ele>1033.5544433594</ele>
        <time>2020-08-16T12:53:32Z</time>
      </trkpt>
      <trkpt lat="44.82072" lon="6.16367">
        <ele>1034.03515625</ele>
        <time>2020-08-16T12:53:37Z</time>
      </trkpt>
      <trkpt lat="44.82073" lon="6.16374">
        <ele>1032.5932617188</ele>
        <time>2020-08-16T12:53:41Z</time>
      </trkpt>
      <trkpt lat="44.82078" lon="6.16408">
        <ele>1031.1513671875</ele>
        <time>2020-08-16T12:53:59Z</time>
      </trkpt>
      <trkpt lat="44.82083" lon="6.16433">
        <ele>1030.6706542969</ele>
        <time>2020-08-16T12:54:13Z</time>
      </trkpt>
      <trkpt lat="44.82088" lon="6.16452">
        <ele>1030.6706542969</ele>
        <time>2020-08-16T12:54:22Z</time>
      </trkpt>
      <trkpt lat="44.82087" lon="6.16468">
        <ele>1033.0737304688</ele>
        <time>2020-08-16T12:54:29Z</time>
      </trkpt>
      <trkpt lat="44.82083" lon="6.16487">
        <ele>1031.6318359375</ele>
        <time>2020-08-16T12:54:37Z</time>
      </trkpt>
      <trkpt lat="44.82081" lon="6.16498">
        <ele>1031.6318359375</ele>
        <time>2020-08-16T12:54:42Z</time>
      </trkpt>
      <trkpt lat="44.82076" lon="6.16509">
        <ele>1031.6318359375</ele>
        <time>2020-08-16T12:54:49Z</time>
      </trkpt>
      <trkpt lat="44.82072" lon="6.16524">
        <ele>1032.1125488281</ele>
        <time>2020-08-16T12:54:58Z</time>
      </trkpt>
      <trkpt lat="44.82071" lon="6.16533">
        <ele>1033.0737304688</ele>
        <time>2020-08-16T12:55:03Z</time>
      </trkpt>
      <trkpt lat="44.82069" lon="6.16539">
        <ele>1032.5932617188</ele>
        <time>2020-08-16T12:55:06Z</time>
      </trkpt>
      <trkpt lat="44.82067" lon="6.16556">
        <ele>1033.0737304688</ele>
        <time>2020-08-16T12:55:16Z</time>
      </trkpt>
      <trkpt lat="44.82068" lon="6.16563">
        <ele>1032.5932617188</ele>
        <time>2020-08-16T12:55:19Z</time>
      </trkpt>
      <trkpt lat="44.82067" lon="6.16569">
        <ele>1033.5544433594</ele>
        <time>2020-08-16T12:55:22Z</time>
      </trkpt>
      <trkpt lat="44.82064" lon="6.16576">
        <ele>1035.9577636719</ele>
        <time>2020-08-16T12:55:26Z</time>
      </trkpt>
      <trkpt lat="44.8206" lon="6.16585">
        <ele>1036.4387207031</ele>
        <time>2020-08-16T12:55:31Z</time>
      </trkpt>
      <trkpt lat="44.82061" lon="6.1659">
        <ele>1036.9191894531</ele>
        <time>2020-08-16T12:55:34Z</time>
      </trkpt>
      <trkpt lat="44.8207" lon="6.16598">
        <ele>1040.2839355469</ele>
        <time>2020-08-16T12:55:43Z</time>
      </trkpt>
      <trkpt lat="44.82071" lon="6.16596">
        <ele>1039.8032226562</ele>
        <time>2020-08-16T12:55:56Z</time>
      </trkpt>
    </trkseg>
  </trk>
</gpx>